<?xml version="1.0" encoding="UTF-8" standalone="no" ?>
<gpx xmlns="http://www.topografix.com/GPX/1/1" xmlns:xsi="http://www.w3.org/2001/XMLSchema-instance" xsi:schemaLocation="http://www.topografix.com/GPX/1/1 http://www.topografix.com/GPX/1/1/gpx.xsd" version="1.1" creator="VisuGPX - https://www.visugpx.com">
  <metadata>
    <name>Crozon, le tour de Landévennec, grand parcours</name>
    <desc><![CDATA[Crozon, le tour de Landévennec, grand parcours, séjour du printemps 2013 ;  ; une organisation de [url=http://benb.eu.org]Bassée en Balade[/url].]]></desc>
  </metadata>
  <trk>
    <name><![CDATA[AVR-16-13 14:59:17]]></name>
    <trkseg>
      <trkpt lat="48.29315" lon="-4.26827">
        <ele>9.27</ele>
        <time>2013-04-16T07:34:58Z</time>
      </trkpt>
      <trkpt lat="48.29314" lon="-4.26824">
        <ele>13.6</ele>
        <time>2013-04-16T07:36:26Z</time>
      </trkpt>
      <trkpt lat="48.29311" lon="-4.26813">
        <ele>13.12</ele>
        <time>2013-04-16T07:36:40Z</time>
      </trkpt>
      <trkpt lat="48.29306" lon="-4.26801">
        <ele>12.63</ele>
        <time>2013-04-16T07:36:50Z</time>
      </trkpt>
      <trkpt lat="48.29301" lon="-4.26787">
        <ele>12.15</ele>
        <time>2013-04-16T07:37:01Z</time>
      </trkpt>
      <trkpt lat="48.29302" lon="-4.26773">
        <ele>10.23</ele>
        <time>2013-04-16T07:37:12Z</time>
      </trkpt>
      <trkpt lat="48.2931" lon="-4.26769">
        <ele>10.23</ele>
        <time>2013-04-16T07:37:26Z</time>
      </trkpt>
      <trkpt lat="48.29325" lon="-4.26766">
        <ele>9.27</ele>
        <time>2013-04-16T07:37:39Z</time>
      </trkpt>
      <trkpt lat="48.29343" lon="-4.26774">
        <ele>8.31</ele>
        <time>2013-04-16T07:37:59Z</time>
      </trkpt>
      <trkpt lat="48.29355" lon="-4.26778">
        <ele>8.31</ele>
        <time>2013-04-16T07:38:23Z</time>
      </trkpt>
      <trkpt lat="48.29366" lon="-4.26791">
        <ele>7.83</ele>
        <time>2013-04-16T07:38:38Z</time>
      </trkpt>
      <trkpt lat="48.29375" lon="-4.26799">
        <ele>7.35</ele>
        <time>2013-04-16T07:38:53Z</time>
      </trkpt>
      <trkpt lat="48.29378" lon="-4.26802">
        <ele>7.83</ele>
        <time>2013-04-16T07:39:52Z</time>
      </trkpt>
      <trkpt lat="48.29385" lon="-4.26813">
        <ele>7.35</ele>
        <time>2013-04-16T07:40:05Z</time>
      </trkpt>
      <trkpt lat="48.29393" lon="-4.26826">
        <ele>7.35</ele>
        <time>2013-04-16T07:40:22Z</time>
      </trkpt>
      <trkpt lat="48.294" lon="-4.26829">
        <ele>8.31</ele>
        <time>2013-04-16T07:43:59Z</time>
      </trkpt>
      <trkpt lat="48.29409" lon="-4.2684">
        <ele>7.35</ele>
        <time>2013-04-16T07:44:13Z</time>
      </trkpt>
      <trkpt lat="48.29416" lon="-4.26851">
        <ele>7.35</ele>
        <time>2013-04-16T07:44:23Z</time>
      </trkpt>
      <trkpt lat="48.29423" lon="-4.26861">
        <ele>6.87</ele>
        <time>2013-04-16T07:44:32Z</time>
      </trkpt>
      <trkpt lat="48.29432" lon="-4.26871">
        <ele>5.91</ele>
        <time>2013-04-16T07:44:41Z</time>
      </trkpt>
      <trkpt lat="48.29441" lon="-4.26876">
        <ele>4.46</ele>
        <time>2013-04-16T07:44:51Z</time>
      </trkpt>
      <trkpt lat="48.29452" lon="-4.2688">
        <ele>2.54</ele>
        <time>2013-04-16T07:45:03Z</time>
      </trkpt>
      <trkpt lat="48.29463" lon="-4.26888">
        <ele>-0.82</ele>
        <time>2013-04-16T07:45:12Z</time>
      </trkpt>
      <trkpt lat="48.29458" lon="-4.26892">
        <ele>2.06</ele>
        <time>2013-04-16T07:45:39Z</time>
      </trkpt>
      <trkpt lat="48.29448" lon="-4.2689">
        <ele>3.02</ele>
        <time>2013-04-16T07:45:47Z</time>
      </trkpt>
      <trkpt lat="48.29438" lon="-4.26888">
        <ele>4.94</ele>
        <time>2013-04-16T07:45:56Z</time>
      </trkpt>
      <trkpt lat="48.29431" lon="-4.26899">
        <ele>6.39</ele>
        <time>2013-04-16T07:46:05Z</time>
      </trkpt>
      <trkpt lat="48.29431" lon="-4.26913">
        <ele>7.35</ele>
        <time>2013-04-16T07:46:15Z</time>
      </trkpt>
      <trkpt lat="48.29434" lon="-4.26927">
        <ele>8.79</ele>
        <time>2013-04-16T07:46:24Z</time>
      </trkpt>
      <trkpt lat="48.29439" lon="-4.2694">
        <ele>8.79</ele>
        <time>2013-04-16T07:46:33Z</time>
      </trkpt>
      <trkpt lat="48.29443" lon="-4.26954">
        <ele>10.23</ele>
        <time>2013-04-16T07:46:42Z</time>
      </trkpt>
      <trkpt lat="48.29447" lon="-4.26967">
        <ele>10.23</ele>
        <time>2013-04-16T07:46:52Z</time>
      </trkpt>
      <trkpt lat="48.29453" lon="-4.26986">
        <ele>11.19</ele>
        <time>2013-04-16T07:47:18Z</time>
      </trkpt>
      <trkpt lat="48.29461" lon="-4.26999">
        <ele>11.19</ele>
        <time>2013-04-16T07:47:28Z</time>
      </trkpt>
      <trkpt lat="48.29467" lon="-4.27015">
        <ele>11.67</ele>
        <time>2013-04-16T07:47:40Z</time>
      </trkpt>
      <trkpt lat="48.29472" lon="-4.2703">
        <ele>11.67</ele>
        <time>2013-04-16T07:47:53Z</time>
      </trkpt>
      <trkpt lat="48.29477" lon="-4.2705">
        <ele>12.63</ele>
        <time>2013-04-16T07:48:05Z</time>
      </trkpt>
      <trkpt lat="48.29483" lon="-4.27064">
        <ele>13.12</ele>
        <time>2013-04-16T07:48:13Z</time>
      </trkpt>
      <trkpt lat="48.29489" lon="-4.2708">
        <ele>14.08</ele>
        <time>2013-04-16T07:48:22Z</time>
      </trkpt>
      <trkpt lat="48.29497" lon="-4.27101">
        <ele>15.52</ele>
        <time>2013-04-16T07:48:34Z</time>
      </trkpt>
      <trkpt lat="48.29504" lon="-4.27114">
        <ele>16.96</ele>
        <time>2013-04-16T07:48:46Z</time>
      </trkpt>
      <trkpt lat="48.2951" lon="-4.27129">
        <ele>19.36</ele>
        <time>2013-04-16T07:48:57Z</time>
      </trkpt>
      <trkpt lat="48.2952" lon="-4.27142">
        <ele>19.36</ele>
        <time>2013-04-16T07:49:08Z</time>
      </trkpt>
      <trkpt lat="48.29525" lon="-4.27166">
        <ele>22.73</ele>
        <time>2013-04-16T07:49:27Z</time>
      </trkpt>
      <trkpt lat="48.29522" lon="-4.27186">
        <ele>26.09</ele>
        <time>2013-04-16T07:49:54Z</time>
      </trkpt>
      <trkpt lat="48.2953" lon="-4.27202">
        <ele>28.02</ele>
        <time>2013-04-16T07:50:12Z</time>
      </trkpt>
      <trkpt lat="48.29537" lon="-4.2723">
        <ele>29.46</ele>
        <time>2013-04-16T07:50:28Z</time>
      </trkpt>
      <trkpt lat="48.29537" lon="-4.27249">
        <ele>32.34</ele>
        <time>2013-04-16T07:50:53Z</time>
      </trkpt>
      <trkpt lat="48.29534" lon="-4.27271">
        <ele>33.78</ele>
        <time>2013-04-16T07:51:11Z</time>
      </trkpt>
      <trkpt lat="48.29523" lon="-4.27307">
        <ele>35.23</ele>
        <time>2013-04-16T07:51:25Z</time>
      </trkpt>
      <trkpt lat="48.29515" lon="-4.27337">
        <ele>37.15</ele>
        <time>2013-04-16T07:51:39Z</time>
      </trkpt>
      <trkpt lat="48.29509" lon="-4.27352">
        <ele>38.11</ele>
        <time>2013-04-16T07:51:52Z</time>
      </trkpt>
      <trkpt lat="48.29504" lon="-4.27364">
        <ele>40.51</ele>
        <time>2013-04-16T07:52:18Z</time>
      </trkpt>
      <trkpt lat="48.29499" lon="-4.27376">
        <ele>41.95</ele>
        <time>2013-04-16T07:52:37Z</time>
      </trkpt>
      <trkpt lat="48.29491" lon="-4.27393">
        <ele>41.47</ele>
        <time>2013-04-16T07:52:54Z</time>
      </trkpt>
      <trkpt lat="48.29484" lon="-4.27424">
        <ele>42.44</ele>
        <time>2013-04-16T07:53:06Z</time>
      </trkpt>
      <trkpt lat="48.29479" lon="-4.2745">
        <ele>44.36</ele>
        <time>2013-04-16T07:53:19Z</time>
      </trkpt>
      <trkpt lat="48.29474" lon="-4.27471">
        <ele>44.36</ele>
        <time>2013-04-16T07:53:36Z</time>
      </trkpt>
      <trkpt lat="48.29467" lon="-4.27499">
        <ele>44.84</ele>
        <time>2013-04-16T07:53:46Z</time>
      </trkpt>
      <trkpt lat="48.29461" lon="-4.27525">
        <ele>45.8</ele>
        <time>2013-04-16T07:53:57Z</time>
      </trkpt>
      <trkpt lat="48.29457" lon="-4.27544">
        <ele>46.76</ele>
        <time>2013-04-16T07:54:07Z</time>
      </trkpt>
      <trkpt lat="48.29451" lon="-4.27568">
        <ele>48.68</ele>
        <time>2013-04-16T07:54:21Z</time>
      </trkpt>
      <trkpt lat="48.29448" lon="-4.27594">
        <ele>49.16</ele>
        <time>2013-04-16T07:54:36Z</time>
      </trkpt>
      <trkpt lat="48.29444" lon="-4.2761">
        <ele>50.61</ele>
        <time>2013-04-16T07:54:51Z</time>
      </trkpt>
      <trkpt lat="48.29449" lon="-4.27632">
        <ele>53.01</ele>
        <time>2013-04-16T07:55:03Z</time>
      </trkpt>
      <trkpt lat="48.29449" lon="-4.27659">
        <ele>54.45</ele>
        <time>2013-04-16T07:55:15Z</time>
      </trkpt>
      <trkpt lat="48.29451" lon="-4.27677">
        <ele>55.41</ele>
        <time>2013-04-16T07:55:26Z</time>
      </trkpt>
      <trkpt lat="48.29453" lon="-4.27697">
        <ele>56.86</ele>
        <time>2013-04-16T07:55:40Z</time>
      </trkpt>
      <trkpt lat="48.29454" lon="-4.27712">
        <ele>56.86</ele>
        <time>2013-04-16T07:55:52Z</time>
      </trkpt>
      <trkpt lat="48.29452" lon="-4.27737">
        <ele>57.82</ele>
        <time>2013-04-16T07:56:05Z</time>
      </trkpt>
      <trkpt lat="48.29453" lon="-4.27754">
        <ele>58.78</ele>
        <time>2013-04-16T07:56:17Z</time>
      </trkpt>
      <trkpt lat="48.29455" lon="-4.27775">
        <ele>60.22</ele>
        <time>2013-04-16T07:56:30Z</time>
      </trkpt>
      <trkpt lat="48.29454" lon="-4.27789">
        <ele>62.14</ele>
        <time>2013-04-16T07:56:42Z</time>
      </trkpt>
      <trkpt lat="48.29451" lon="-4.27806">
        <ele>65.03</ele>
        <time>2013-04-16T07:56:54Z</time>
      </trkpt>
      <trkpt lat="48.2945" lon="-4.27826">
        <ele>66.95</ele>
        <time>2013-04-16T07:57:11Z</time>
      </trkpt>
      <trkpt lat="48.29449" lon="-4.27847">
        <ele>68.39</ele>
        <time>2013-04-16T07:57:23Z</time>
      </trkpt>
      <trkpt lat="48.29444" lon="-4.27864">
        <ele>69.35</ele>
        <time>2013-04-16T07:57:37Z</time>
      </trkpt>
      <trkpt lat="48.29439" lon="-4.27885">
        <ele>71.27</ele>
        <time>2013-04-16T07:57:51Z</time>
      </trkpt>
      <trkpt lat="48.29435" lon="-4.27902">
        <ele>72.72</ele>
        <time>2013-04-16T07:58:03Z</time>
      </trkpt>
      <trkpt lat="48.29433" lon="-4.27923">
        <ele>73.68</ele>
        <time>2013-04-16T07:58:18Z</time>
      </trkpt>
      <trkpt lat="48.29426" lon="-4.27941">
        <ele>74.16</ele>
        <time>2013-04-16T07:58:32Z</time>
      </trkpt>
      <trkpt lat="48.29419" lon="-4.27965">
        <ele>75.12</ele>
        <time>2013-04-16T07:58:49Z</time>
      </trkpt>
      <trkpt lat="48.29412" lon="-4.27982">
        <ele>75.6</ele>
        <time>2013-04-16T07:59:00Z</time>
      </trkpt>
      <trkpt lat="48.29403" lon="-4.28001">
        <ele>76.56</ele>
        <time>2013-04-16T07:59:12Z</time>
      </trkpt>
      <trkpt lat="48.29398" lon="-4.28013">
        <ele>78</ele>
        <time>2013-04-16T07:59:23Z</time>
      </trkpt>
      <trkpt lat="48.29401" lon="-4.28018">
        <ele>79.45</ele>
        <time>2013-04-16T08:03:13Z</time>
      </trkpt>
      <trkpt lat="48.29397" lon="-4.28035">
        <ele>79.45</ele>
        <time>2013-04-16T08:05:11Z</time>
      </trkpt>
      <trkpt lat="48.29395" lon="-4.28052">
        <ele>78.97</ele>
        <time>2013-04-16T08:05:22Z</time>
      </trkpt>
      <trkpt lat="48.29392" lon="-4.28074">
        <ele>78</ele>
        <time>2013-04-16T08:05:34Z</time>
      </trkpt>
      <trkpt lat="48.29392" lon="-4.28092">
        <ele>77.52</ele>
        <time>2013-04-16T08:05:43Z</time>
      </trkpt>
      <trkpt lat="48.29391" lon="-4.28108">
        <ele>77.04</ele>
        <time>2013-04-16T08:05:51Z</time>
      </trkpt>
      <trkpt lat="48.29391" lon="-4.28126">
        <ele>76.56</ele>
        <time>2013-04-16T08:06:02Z</time>
      </trkpt>
      <trkpt lat="48.29391" lon="-4.28147">
        <ele>75.12</ele>
        <time>2013-04-16T08:06:15Z</time>
      </trkpt>
      <trkpt lat="48.29392" lon="-4.28169">
        <ele>74.64</ele>
        <time>2013-04-16T08:06:27Z</time>
      </trkpt>
      <trkpt lat="48.29398" lon="-4.28183">
        <ele>73.68</ele>
        <time>2013-04-16T08:06:36Z</time>
      </trkpt>
      <trkpt lat="48.2941" lon="-4.28189">
        <ele>72.72</ele>
        <time>2013-04-16T08:06:48Z</time>
      </trkpt>
      <trkpt lat="48.2942" lon="-4.28196">
        <ele>69.83</ele>
        <time>2013-04-16T08:07:03Z</time>
      </trkpt>
      <trkpt lat="48.29429" lon="-4.28206">
        <ele>68.87</ele>
        <time>2013-04-16T08:07:10Z</time>
      </trkpt>
      <trkpt lat="48.29432" lon="-4.28222">
        <ele>67.43</ele>
        <time>2013-04-16T08:07:18Z</time>
      </trkpt>
      <trkpt lat="48.2944" lon="-4.28228">
        <ele>67.91</ele>
        <time>2013-04-16T08:07:25Z</time>
      </trkpt>
      <trkpt lat="48.2945" lon="-4.2824">
        <ele>65.99</ele>
        <time>2013-04-16T08:07:36Z</time>
      </trkpt>
      <trkpt lat="48.29456" lon="-4.28257">
        <ele>64.07</ele>
        <time>2013-04-16T08:07:53Z</time>
      </trkpt>
      <trkpt lat="48.29464" lon="-4.28272">
        <ele>61.18</ele>
        <time>2013-04-16T08:08:02Z</time>
      </trkpt>
      <trkpt lat="48.29475" lon="-4.28289">
        <ele>59.74</ele>
        <time>2013-04-16T08:08:15Z</time>
      </trkpt>
      <trkpt lat="48.29486" lon="-4.28305">
        <ele>56.86</ele>
        <time>2013-04-16T08:08:27Z</time>
      </trkpt>
      <trkpt lat="48.29492" lon="-4.28322">
        <ele>55.41</ele>
        <time>2013-04-16T08:08:39Z</time>
      </trkpt>
      <trkpt lat="48.29499" lon="-4.28343">
        <ele>53.97</ele>
        <time>2013-04-16T08:08:53Z</time>
      </trkpt>
      <trkpt lat="48.29513" lon="-4.28355">
        <ele>51.57</ele>
        <time>2013-04-16T08:09:05Z</time>
      </trkpt>
      <trkpt lat="48.29519" lon="-4.28323">
        <ele>49.65</ele>
        <time>2013-04-16T08:09:26Z</time>
      </trkpt>
      <trkpt lat="48.29513" lon="-4.28297">
        <ele>48.68</ele>
        <time>2013-04-16T08:10:15Z</time>
      </trkpt>
      <trkpt lat="48.2952" lon="-4.28291">
        <ele>46.76</ele>
        <time>2013-04-16T08:10:32Z</time>
      </trkpt>
      <trkpt lat="48.29532" lon="-4.28269">
        <ele>44.36</ele>
        <time>2013-04-16T08:10:52Z</time>
      </trkpt>
      <trkpt lat="48.29541" lon="-4.28247">
        <ele>42.44</ele>
        <time>2013-04-16T08:11:05Z</time>
      </trkpt>
      <trkpt lat="48.29546" lon="-4.28221">
        <ele>41.47</ele>
        <time>2013-04-16T08:11:21Z</time>
      </trkpt>
      <trkpt lat="48.29545" lon="-4.28204">
        <ele>40.51</ele>
        <time>2013-04-16T08:11:34Z</time>
      </trkpt>
      <trkpt lat="48.29549" lon="-4.28188">
        <ele>39.55</ele>
        <time>2013-04-16T08:11:44Z</time>
      </trkpt>
      <trkpt lat="48.29552" lon="-4.28173">
        <ele>39.55</ele>
        <time>2013-04-16T08:11:54Z</time>
      </trkpt>
      <trkpt lat="48.29558" lon="-4.28162">
        <ele>38.59</ele>
        <time>2013-04-16T08:12:02Z</time>
      </trkpt>
      <trkpt lat="48.29563" lon="-4.28148">
        <ele>37.15</ele>
        <time>2013-04-16T08:12:12Z</time>
      </trkpt>
      <trkpt lat="48.29569" lon="-4.28131">
        <ele>35.23</ele>
        <time>2013-04-16T08:12:23Z</time>
      </trkpt>
      <trkpt lat="48.29577" lon="-4.28114">
        <ele>33.78</ele>
        <time>2013-04-16T08:12:33Z</time>
      </trkpt>
      <trkpt lat="48.29585" lon="-4.28103">
        <ele>32.82</ele>
        <time>2013-04-16T08:12:42Z</time>
      </trkpt>
      <trkpt lat="48.29592" lon="-4.28087">
        <ele>29.94</ele>
        <time>2013-04-16T08:12:56Z</time>
      </trkpt>
      <trkpt lat="48.29605" lon="-4.28084">
        <ele>28.02</ele>
        <time>2013-04-16T08:13:13Z</time>
      </trkpt>
      <trkpt lat="48.29603" lon="-4.28105">
        <ele>26.57</ele>
        <time>2013-04-16T08:13:30Z</time>
      </trkpt>
      <trkpt lat="48.29613" lon="-4.28126">
        <ele>25.61</ele>
        <time>2013-04-16T08:13:40Z</time>
      </trkpt>
      <trkpt lat="48.2962" lon="-4.28139">
        <ele>24.17</ele>
        <time>2013-04-16T08:13:52Z</time>
      </trkpt>
      <trkpt lat="48.29626" lon="-4.28162">
        <ele>22.73</ele>
        <time>2013-04-16T08:14:08Z</time>
      </trkpt>
      <trkpt lat="48.29625" lon="-4.28181">
        <ele>21.29</ele>
        <time>2013-04-16T08:14:19Z</time>
      </trkpt>
      <trkpt lat="48.29623" lon="-4.28198">
        <ele>20.32</ele>
        <time>2013-04-16T08:14:28Z</time>
      </trkpt>
      <trkpt lat="48.29618" lon="-4.28216">
        <ele>21.29</ele>
        <time>2013-04-16T08:14:41Z</time>
      </trkpt>
      <trkpt lat="48.29625" lon="-4.28207">
        <ele>20.32</ele>
        <time>2013-04-16T08:14:51Z</time>
      </trkpt>
      <trkpt lat="48.29636" lon="-4.28207">
        <ele>19.36</ele>
        <time>2013-04-16T08:15:00Z</time>
      </trkpt>
      <trkpt lat="48.29645" lon="-4.28215">
        <ele>18.4</ele>
        <time>2013-04-16T08:15:09Z</time>
      </trkpt>
      <trkpt lat="48.29651" lon="-4.28232">
        <ele>18.4</ele>
        <time>2013-04-16T08:15:24Z</time>
      </trkpt>
      <trkpt lat="48.29655" lon="-4.28249">
        <ele>17.44</ele>
        <time>2013-04-16T08:15:43Z</time>
      </trkpt>
      <trkpt lat="48.29659" lon="-4.2827">
        <ele>16.48</ele>
        <time>2013-04-16T08:15:56Z</time>
      </trkpt>
      <trkpt lat="48.29668" lon="-4.28291">
        <ele>16</ele>
        <time>2013-04-16T08:16:08Z</time>
      </trkpt>
      <trkpt lat="48.29671" lon="-4.28313">
        <ele>14.08</ele>
        <time>2013-04-16T08:16:25Z</time>
      </trkpt>
      <trkpt lat="48.29673" lon="-4.28342">
        <ele>17.92</ele>
        <time>2013-04-16T08:16:48Z</time>
      </trkpt>
      <trkpt lat="48.29672" lon="-4.28372">
        <ele>18.4</ele>
        <time>2013-04-16T08:17:31Z</time>
      </trkpt>
      <trkpt lat="48.29667" lon="-4.28413">
        <ele>17.92</ele>
        <time>2013-04-16T08:18:24Z</time>
      </trkpt>
      <trkpt lat="48.29662" lon="-4.28429">
        <ele>18.88</ele>
        <time>2013-04-16T08:21:16Z</time>
      </trkpt>
      <trkpt lat="48.2967" lon="-4.2845">
        <ele>16.48</ele>
        <time>2013-04-16T08:21:37Z</time>
      </trkpt>
      <trkpt lat="48.29676" lon="-4.28469">
        <ele>14.56</ele>
        <time>2013-04-16T08:21:54Z</time>
      </trkpt>
      <trkpt lat="48.29676" lon="-4.2848">
        <ele>13.12</ele>
        <time>2013-04-16T08:22:14Z</time>
      </trkpt>
      <trkpt lat="48.29675" lon="-4.28513">
        <ele>14.56</ele>
        <time>2013-04-16T08:22:44Z</time>
      </trkpt>
      <trkpt lat="48.29678" lon="-4.28534">
        <ele>15.52</ele>
        <time>2013-04-16T08:23:06Z</time>
      </trkpt>
      <trkpt lat="48.29679" lon="-4.28567">
        <ele>16.96</ele>
        <time>2013-04-16T08:23:33Z</time>
      </trkpt>
      <trkpt lat="48.29685" lon="-4.28584">
        <ele>16.48</ele>
        <time>2013-04-16T08:24:08Z</time>
      </trkpt>
      <trkpt lat="48.29701" lon="-4.28638">
        <ele>15.04</ele>
        <time>2013-04-16T08:24:41Z</time>
      </trkpt>
      <trkpt lat="48.29706" lon="-4.28662">
        <ele>13.6</ele>
        <time>2013-04-16T08:25:04Z</time>
      </trkpt>
      <trkpt lat="48.29709" lon="-4.28714">
        <ele>11.19</ele>
        <time>2013-04-16T08:25:29Z</time>
      </trkpt>
      <trkpt lat="48.29702" lon="-4.2876">
        <ele>8.79</ele>
        <time>2013-04-16T08:25:50Z</time>
      </trkpt>
      <trkpt lat="48.29698" lon="-4.28793">
        <ele>8.31</ele>
        <time>2013-04-16T08:26:26Z</time>
      </trkpt>
      <trkpt lat="48.29692" lon="-4.28822">
        <ele>8.79</ele>
        <time>2013-04-16T08:26:49Z</time>
      </trkpt>
      <trkpt lat="48.29689" lon="-4.28846">
        <ele>9.27</ele>
        <time>2013-04-16T08:27:02Z</time>
      </trkpt>
      <trkpt lat="48.29683" lon="-4.28862">
        <ele>9.27</ele>
        <time>2013-04-16T08:27:15Z</time>
      </trkpt>
      <trkpt lat="48.29685" lon="-4.28881">
        <ele>9.75</ele>
        <time>2013-04-16T08:27:42Z</time>
      </trkpt>
      <trkpt lat="48.2969" lon="-4.28905">
        <ele>3.02</ele>
        <time>2013-04-16T08:36:42Z</time>
      </trkpt>
      <trkpt lat="48.29689" lon="-4.28913">
        <ele>3.5</ele>
        <time>2013-04-16T08:37:48Z</time>
      </trkpt>
      <trkpt lat="48.29691" lon="-4.28939">
        <ele>2.54</ele>
        <time>2013-04-16T08:38:09Z</time>
      </trkpt>
      <trkpt lat="48.2969" lon="-4.28969">
        <ele>1.58</ele>
        <time>2013-04-16T08:38:27Z</time>
      </trkpt>
      <trkpt lat="48.29691" lon="-4.28999">
        <ele>2.06</ele>
        <time>2013-04-16T08:38:47Z</time>
      </trkpt>
      <trkpt lat="48.29691" lon="-4.29019">
        <ele>2.06</ele>
        <time>2013-04-16T08:39:12Z</time>
      </trkpt>
      <trkpt lat="48.29692" lon="-4.29047">
        <ele>2.06</ele>
        <time>2013-04-16T08:39:29Z</time>
      </trkpt>
      <trkpt lat="48.29692" lon="-4.29078">
        <ele>2.06</ele>
        <time>2013-04-16T08:39:55Z</time>
      </trkpt>
      <trkpt lat="48.29691" lon="-4.291">
        <ele>1.58</ele>
        <time>2013-04-16T08:40:09Z</time>
      </trkpt>
      <trkpt lat="48.29692" lon="-4.29127">
        <ele>1.1</ele>
        <time>2013-04-16T08:40:26Z</time>
      </trkpt>
      <trkpt lat="48.29687" lon="-4.29158">
        <ele>1.1</ele>
        <time>2013-04-16T08:40:41Z</time>
      </trkpt>
      <trkpt lat="48.29691" lon="-4.29175">
        <ele>1.1</ele>
        <time>2013-04-16T08:41:00Z</time>
      </trkpt>
      <trkpt lat="48.29689" lon="-4.29201">
        <ele>1.58</ele>
        <time>2013-04-16T08:41:15Z</time>
      </trkpt>
      <trkpt lat="48.29685" lon="-4.29226">
        <ele>1.1</ele>
        <time>2013-04-16T08:41:34Z</time>
      </trkpt>
      <trkpt lat="48.29685" lon="-4.29226">
        <ele>-1.79</ele>
        <time>2013-04-16T08:41:57Z</time>
      </trkpt>
      <trkpt lat="48.29696" lon="-4.29266">
        <ele>-2.27</ele>
        <time>2013-04-16T08:42:09Z</time>
      </trkpt>
      <trkpt lat="48.29703" lon="-4.29296">
        <ele>-2.27</ele>
        <time>2013-04-16T08:42:23Z</time>
      </trkpt>
      <trkpt lat="48.29709" lon="-4.2932">
        <ele>-1.3</ele>
        <time>2013-04-16T08:42:35Z</time>
      </trkpt>
      <trkpt lat="48.29715" lon="-4.29342">
        <ele>-1.3</ele>
        <time>2013-04-16T08:42:46Z</time>
      </trkpt>
      <trkpt lat="48.29721" lon="-4.29364">
        <ele>-1.79</ele>
        <time>2013-04-16T08:42:58Z</time>
      </trkpt>
      <trkpt lat="48.29724" lon="-4.29389">
        <ele>-2.75</ele>
        <time>2013-04-16T08:43:12Z</time>
      </trkpt>
      <trkpt lat="48.29729" lon="-4.29408">
        <ele>-3.23</ele>
        <time>2013-04-16T08:43:25Z</time>
      </trkpt>
      <trkpt lat="48.29735" lon="-4.29424">
        <ele>-4.19</ele>
        <time>2013-04-16T08:43:39Z</time>
      </trkpt>
      <trkpt lat="48.29745" lon="-4.2945">
        <ele>-4.19</ele>
        <time>2013-04-16T08:43:52Z</time>
      </trkpt>
      <trkpt lat="48.29749" lon="-4.29477">
        <ele>-4.19</ele>
        <time>2013-04-16T08:44:07Z</time>
      </trkpt>
      <trkpt lat="48.2975" lon="-4.29492">
        <ele>-4.19</ele>
        <time>2013-04-16T08:44:22Z</time>
      </trkpt>
      <trkpt lat="48.29754" lon="-4.29518">
        <ele>-4.67</ele>
        <time>2013-04-16T08:44:41Z</time>
      </trkpt>
      <trkpt lat="48.29756" lon="-4.29528">
        <ele>-6.59</ele>
        <time>2013-04-16T08:45:07Z</time>
      </trkpt>
      <trkpt lat="48.29756" lon="-4.2953">
        <ele>-9.48</ele>
        <time>2013-04-16T08:45:31Z</time>
      </trkpt>
      <trkpt lat="48.29762" lon="-4.2956">
        <ele>-9</ele>
        <time>2013-04-16T08:45:48Z</time>
      </trkpt>
      <trkpt lat="48.29763" lon="-4.29612">
        <ele>-10.44</ele>
        <time>2013-04-16T08:46:42Z</time>
      </trkpt>
      <trkpt lat="48.29762" lon="-4.29649">
        <ele>-11.4</ele>
        <time>2013-04-16T08:48:20Z</time>
      </trkpt>
      <trkpt lat="48.29766" lon="-4.2967">
        <ele>-9.96</ele>
        <time>2013-04-16T08:48:49Z</time>
      </trkpt>
      <trkpt lat="48.29766" lon="-4.29726">
        <ele>-9.48</ele>
        <time>2013-04-16T08:49:13Z</time>
      </trkpt>
      <trkpt lat="48.29766" lon="-4.29749">
        <ele>-9.48</ele>
        <time>2013-04-16T08:49:33Z</time>
      </trkpt>
      <trkpt lat="48.29766" lon="-4.29792">
        <ele>-9.48</ele>
        <time>2013-04-16T08:49:54Z</time>
      </trkpt>
      <trkpt lat="48.29764" lon="-4.2986">
        <ele>-9.96</ele>
        <time>2013-04-16T08:50:36Z</time>
      </trkpt>
      <trkpt lat="48.29762" lon="-4.2992">
        <ele>-9.96</ele>
        <time>2013-04-16T08:51:21Z</time>
      </trkpt>
      <trkpt lat="48.29759" lon="-4.29958">
        <ele>-9.96</ele>
        <time>2013-04-16T08:51:37Z</time>
      </trkpt>
      <trkpt lat="48.29758" lon="-4.29998">
        <ele>-9.48</ele>
        <time>2013-04-16T08:51:58Z</time>
      </trkpt>
      <trkpt lat="48.29757" lon="-4.30029">
        <ele>-8.51</ele>
        <time>2013-04-16T08:52:13Z</time>
      </trkpt>
      <trkpt lat="48.29754" lon="-4.30054">
        <ele>-9</ele>
        <time>2013-04-16T08:52:26Z</time>
      </trkpt>
      <trkpt lat="48.29752" lon="-4.30077">
        <ele>-8.03</ele>
        <time>2013-04-16T08:52:38Z</time>
      </trkpt>
      <trkpt lat="48.2975" lon="-4.30104">
        <ele>-9.48</ele>
        <time>2013-04-16T08:52:55Z</time>
      </trkpt>
      <trkpt lat="48.29746" lon="-4.30125">
        <ele>-9</ele>
        <time>2013-04-16T08:53:10Z</time>
      </trkpt>
      <trkpt lat="48.29742" lon="-4.30143">
        <ele>-9</ele>
        <time>2013-04-16T08:53:23Z</time>
      </trkpt>
      <trkpt lat="48.2974" lon="-4.30163">
        <ele>-9</ele>
        <time>2013-04-16T08:53:35Z</time>
      </trkpt>
      <trkpt lat="48.29739" lon="-4.30189">
        <ele>-9</ele>
        <time>2013-04-16T08:53:53Z</time>
      </trkpt>
      <trkpt lat="48.29741" lon="-4.30222">
        <ele>-8.51</ele>
        <time>2013-04-16T08:54:08Z</time>
      </trkpt>
      <trkpt lat="48.29742" lon="-4.30255">
        <ele>-8.51</ele>
        <time>2013-04-16T08:54:27Z</time>
      </trkpt>
      <trkpt lat="48.29734" lon="-4.30284">
        <ele>-8.03</ele>
        <time>2013-04-16T08:54:43Z</time>
      </trkpt>
      <trkpt lat="48.29737" lon="-4.30295">
        <ele>-8.51</ele>
        <time>2013-04-16T08:55:31Z</time>
      </trkpt>
      <trkpt lat="48.29733" lon="-4.30317">
        <ele>-7.55</ele>
        <time>2013-04-16T08:56:07Z</time>
      </trkpt>
      <trkpt lat="48.29735" lon="-4.30343">
        <ele>-7.55</ele>
        <time>2013-04-16T08:56:22Z</time>
      </trkpt>
      <trkpt lat="48.29732" lon="-4.30366">
        <ele>-8.03</ele>
        <time>2013-04-16T08:56:37Z</time>
      </trkpt>
      <trkpt lat="48.29734" lon="-4.30385">
        <ele>-6.59</ele>
        <time>2013-04-16T08:57:19Z</time>
      </trkpt>
      <trkpt lat="48.29734" lon="-4.30411">
        <ele>-6.11</ele>
        <time>2013-04-16T08:57:44Z</time>
      </trkpt>
      <trkpt lat="48.29731" lon="-4.30435">
        <ele>-7.07</ele>
        <time>2013-04-16T08:58:01Z</time>
      </trkpt>
      <trkpt lat="48.2973" lon="-4.30465">
        <ele>-6.11</ele>
        <time>2013-04-16T08:58:32Z</time>
      </trkpt>
      <trkpt lat="48.29732" lon="-4.30496">
        <ele>-5.63</ele>
        <time>2013-04-16T08:58:56Z</time>
      </trkpt>
      <trkpt lat="48.29733" lon="-4.30531">
        <ele>-4.67</ele>
        <time>2013-04-16T08:59:18Z</time>
      </trkpt>
      <trkpt lat="48.29731" lon="-4.30574">
        <ele>-2.27</ele>
        <time>2013-04-16T08:59:54Z</time>
      </trkpt>
      <trkpt lat="48.29719" lon="-4.30605">
        <ele>2.06</ele>
        <time>2013-04-16T09:00:22Z</time>
      </trkpt>
      <trkpt lat="48.29709" lon="-4.30631">
        <ele>4.94</ele>
        <time>2013-04-16T09:00:42Z</time>
      </trkpt>
      <trkpt lat="48.29704" lon="-4.30667">
        <ele>6.39</ele>
        <time>2013-04-16T09:00:58Z</time>
      </trkpt>
      <trkpt lat="48.29694" lon="-4.30675">
        <ele>7.35</ele>
        <time>2013-04-16T09:01:26Z</time>
      </trkpt>
      <trkpt lat="48.29686" lon="-4.30688">
        <ele>8.31</ele>
        <time>2013-04-16T09:01:39Z</time>
      </trkpt>
      <trkpt lat="48.29679" lon="-4.30704">
        <ele>9.27</ele>
        <time>2013-04-16T09:01:52Z</time>
      </trkpt>
      <trkpt lat="48.29671" lon="-4.30719">
        <ele>9.75</ele>
        <time>2013-04-16T09:02:03Z</time>
      </trkpt>
      <trkpt lat="48.29665" lon="-4.30747">
        <ele>9.75</ele>
        <time>2013-04-16T09:02:15Z</time>
      </trkpt>
      <trkpt lat="48.29662" lon="-4.30768">
        <ele>9.75</ele>
        <time>2013-04-16T09:02:29Z</time>
      </trkpt>
      <trkpt lat="48.29658" lon="-4.3079">
        <ele>9.27</ele>
        <time>2013-04-16T09:02:45Z</time>
      </trkpt>
      <trkpt lat="48.29652" lon="-4.30809">
        <ele>9.75</ele>
        <time>2013-04-16T09:03:19Z</time>
      </trkpt>
      <trkpt lat="48.29643" lon="-4.30843">
        <ele>8.79</ele>
        <time>2013-04-16T09:03:48Z</time>
      </trkpt>
      <trkpt lat="48.29638" lon="-4.30874">
        <ele>7.83</ele>
        <time>2013-04-16T09:04:10Z</time>
      </trkpt>
      <trkpt lat="48.29629" lon="-4.30906">
        <ele>6.39</ele>
        <time>2013-04-16T09:04:25Z</time>
      </trkpt>
      <trkpt lat="48.29624" lon="-4.30923">
        <ele>5.42</ele>
        <time>2013-04-16T09:04:37Z</time>
      </trkpt>
      <trkpt lat="48.29617" lon="-4.30955">
        <ele>4.46</ele>
        <time>2013-04-16T09:04:51Z</time>
      </trkpt>
      <trkpt lat="48.29608" lon="-4.30986">
        <ele>4.46</ele>
        <time>2013-04-16T09:05:10Z</time>
      </trkpt>
      <trkpt lat="48.29602" lon="-4.31004">
        <ele>3.98</ele>
        <time>2013-04-16T09:05:44Z</time>
      </trkpt>
      <trkpt lat="48.29595" lon="-4.3103">
        <ele>3.02</ele>
        <time>2013-04-16T09:05:58Z</time>
      </trkpt>
      <trkpt lat="48.29589" lon="-4.31043">
        <ele>2.54</ele>
        <time>2013-04-16T09:06:13Z</time>
      </trkpt>
      <trkpt lat="48.29582" lon="-4.31059">
        <ele>2.06</ele>
        <time>2013-04-16T09:06:25Z</time>
      </trkpt>
      <trkpt lat="48.29574" lon="-4.31079">
        <ele>1.58</ele>
        <time>2013-04-16T09:06:40Z</time>
      </trkpt>
      <trkpt lat="48.29566" lon="-4.31104">
        <ele>0.62</ele>
        <time>2013-04-16T09:06:56Z</time>
      </trkpt>
      <trkpt lat="48.29559" lon="-4.31121">
        <ele>0.62</ele>
        <time>2013-04-16T09:07:06Z</time>
      </trkpt>
      <trkpt lat="48.29551" lon="-4.31143">
        <ele>1.1</ele>
        <time>2013-04-16T09:07:21Z</time>
      </trkpt>
      <trkpt lat="48.2954" lon="-4.31168">
        <ele>1.1</ele>
        <time>2013-04-16T09:07:37Z</time>
      </trkpt>
      <trkpt lat="48.29529" lon="-4.31188">
        <ele>1.58</ele>
        <time>2013-04-16T09:07:53Z</time>
      </trkpt>
      <trkpt lat="48.29518" lon="-4.31213">
        <ele>2.06</ele>
        <time>2013-04-16T09:08:09Z</time>
      </trkpt>
      <trkpt lat="48.2951" lon="-4.31232">
        <ele>2.06</ele>
        <time>2013-04-16T09:08:23Z</time>
      </trkpt>
      <trkpt lat="48.29501" lon="-4.31248">
        <ele>3.02</ele>
        <time>2013-04-16T09:08:35Z</time>
      </trkpt>
      <trkpt lat="48.29489" lon="-4.31267">
        <ele>4.94</ele>
        <time>2013-04-16T09:08:50Z</time>
      </trkpt>
      <trkpt lat="48.29481" lon="-4.31283">
        <ele>5.91</ele>
        <time>2013-04-16T09:09:04Z</time>
      </trkpt>
      <trkpt lat="48.29476" lon="-4.31291">
        <ele>6.87</ele>
        <time>2013-04-16T09:13:33Z</time>
      </trkpt>
      <trkpt lat="48.29478" lon="-4.31284">
        <ele>7.83</ele>
        <time>2013-04-16T09:16:00Z</time>
      </trkpt>
      <trkpt lat="48.29472" lon="-4.31294">
        <ele>9.27</ele>
        <time>2013-04-16T09:18:59Z</time>
      </trkpt>
      <trkpt lat="48.29463" lon="-4.31324">
        <ele>11.19</ele>
        <time>2013-04-16T09:19:21Z</time>
      </trkpt>
      <trkpt lat="48.29454" lon="-4.31357">
        <ele>13.12</ele>
        <time>2013-04-16T09:19:41Z</time>
      </trkpt>
      <trkpt lat="48.29446" lon="-4.31386">
        <ele>14.08</ele>
        <time>2013-04-16T09:20:09Z</time>
      </trkpt>
      <trkpt lat="48.29435" lon="-4.3142">
        <ele>14.56</ele>
        <time>2013-04-16T09:20:36Z</time>
      </trkpt>
      <trkpt lat="48.29423" lon="-4.31455">
        <ele>16.48</ele>
        <time>2013-04-16T09:21:12Z</time>
      </trkpt>
      <trkpt lat="48.29413" lon="-4.31486">
        <ele>16.96</ele>
        <time>2013-04-16T09:21:34Z</time>
      </trkpt>
      <trkpt lat="48.29405" lon="-4.31519">
        <ele>17.92</ele>
        <time>2013-04-16T09:21:55Z</time>
      </trkpt>
      <trkpt lat="48.2939" lon="-4.31551">
        <ele>19.36</ele>
        <time>2013-04-16T09:22:20Z</time>
      </trkpt>
      <trkpt lat="48.29382" lon="-4.31587">
        <ele>19.84</ele>
        <time>2013-04-16T09:22:56Z</time>
      </trkpt>
      <trkpt lat="48.29373" lon="-4.31621">
        <ele>21.77</ele>
        <time>2013-04-16T09:23:19Z</time>
      </trkpt>
      <trkpt lat="48.29359" lon="-4.31663">
        <ele>22.25</ele>
        <time>2013-04-16T09:23:49Z</time>
      </trkpt>
      <trkpt lat="48.29347" lon="-4.31693">
        <ele>23.69</ele>
        <time>2013-04-16T09:24:14Z</time>
      </trkpt>
      <trkpt lat="48.29334" lon="-4.31715">
        <ele>23.21</ele>
        <time>2013-04-16T09:25:40Z</time>
      </trkpt>
      <trkpt lat="48.29314" lon="-4.31751">
        <ele>22.25</ele>
        <time>2013-04-16T09:26:02Z</time>
      </trkpt>
      <trkpt lat="48.293" lon="-4.31775">
        <ele>22.73</ele>
        <time>2013-04-16T09:26:21Z</time>
      </trkpt>
      <trkpt lat="48.29286" lon="-4.31791">
        <ele>22.25</ele>
        <time>2013-04-16T09:26:50Z</time>
      </trkpt>
      <trkpt lat="48.29269" lon="-4.31813">
        <ele>22.73</ele>
        <time>2013-04-16T09:27:11Z</time>
      </trkpt>
      <trkpt lat="48.29255" lon="-4.31828">
        <ele>22.73</ele>
        <time>2013-04-16T09:27:31Z</time>
      </trkpt>
      <trkpt lat="48.29236" lon="-4.31854">
        <ele>22.73</ele>
        <time>2013-04-16T09:27:52Z</time>
      </trkpt>
      <trkpt lat="48.29211" lon="-4.31883">
        <ele>22.73</ele>
        <time>2013-04-16T09:28:18Z</time>
      </trkpt>
      <trkpt lat="48.2919" lon="-4.3191">
        <ele>24.17</ele>
        <time>2013-04-16T09:28:38Z</time>
      </trkpt>
      <trkpt lat="48.29171" lon="-4.31937">
        <ele>25.13</ele>
        <time>2013-04-16T09:28:59Z</time>
      </trkpt>
      <trkpt lat="48.29156" lon="-4.3197">
        <ele>26.09</ele>
        <time>2013-04-16T09:29:25Z</time>
      </trkpt>
      <trkpt lat="48.29139" lon="-4.32005">
        <ele>25.61</ele>
        <time>2013-04-16T09:29:48Z</time>
      </trkpt>
      <trkpt lat="48.29129" lon="-4.3203">
        <ele>26.09</ele>
        <time>2013-04-16T09:30:15Z</time>
      </trkpt>
      <trkpt lat="48.29115" lon="-4.32066">
        <ele>27.05</ele>
        <time>2013-04-16T09:30:40Z</time>
      </trkpt>
      <trkpt lat="48.29107" lon="-4.32102">
        <ele>26.57</ele>
        <time>2013-04-16T09:31:04Z</time>
      </trkpt>
      <trkpt lat="48.29101" lon="-4.32138">
        <ele>27.05</ele>
        <time>2013-04-16T09:31:27Z</time>
      </trkpt>
      <trkpt lat="48.29094" lon="-4.32168">
        <ele>28.5</ele>
        <time>2013-04-16T09:31:45Z</time>
      </trkpt>
      <trkpt lat="48.2909" lon="-4.32207">
        <ele>28.98</ele>
        <time>2013-04-16T09:32:06Z</time>
      </trkpt>
      <trkpt lat="48.29083" lon="-4.32239">
        <ele>29.46</ele>
        <time>2013-04-16T09:32:24Z</time>
      </trkpt>
      <trkpt lat="48.2908" lon="-4.32271">
        <ele>28.98</ele>
        <time>2013-04-16T09:32:47Z</time>
      </trkpt>
      <trkpt lat="48.29072" lon="-4.32307">
        <ele>28.98</ele>
        <time>2013-04-16T09:33:09Z</time>
      </trkpt>
      <trkpt lat="48.29065" lon="-4.32343">
        <ele>28.5</ele>
        <time>2013-04-16T09:33:36Z</time>
      </trkpt>
      <trkpt lat="48.29061" lon="-4.32377">
        <ele>27.05</ele>
        <time>2013-04-16T09:34:03Z</time>
      </trkpt>
      <trkpt lat="48.29058" lon="-4.32429">
        <ele>26.57</ele>
        <time>2013-04-16T09:34:26Z</time>
      </trkpt>
      <trkpt lat="48.29057" lon="-4.32456">
        <ele>26.57</ele>
        <time>2013-04-16T09:35:58Z</time>
      </trkpt>
      <trkpt lat="48.29053" lon="-4.32501">
        <ele>26.09</ele>
        <time>2013-04-16T09:36:24Z</time>
      </trkpt>
      <trkpt lat="48.29049" lon="-4.32539">
        <ele>26.09</ele>
        <time>2013-04-16T09:36:46Z</time>
      </trkpt>
      <trkpt lat="48.29042" lon="-4.32563">
        <ele>27.05</ele>
        <time>2013-04-16T09:37:13Z</time>
      </trkpt>
      <trkpt lat="48.29034" lon="-4.32599">
        <ele>26.09</ele>
        <time>2013-04-16T09:37:31Z</time>
      </trkpt>
      <trkpt lat="48.29031" lon="-4.32628">
        <ele>26.57</ele>
        <time>2013-04-16T09:37:49Z</time>
      </trkpt>
      <trkpt lat="48.29028" lon="-4.32651">
        <ele>25.61</ele>
        <time>2013-04-16T09:38:07Z</time>
      </trkpt>
      <trkpt lat="48.29023" lon="-4.32678">
        <ele>26.09</ele>
        <time>2013-04-16T09:38:25Z</time>
      </trkpt>
      <trkpt lat="48.29016" lon="-4.32713">
        <ele>25.61</ele>
        <time>2013-04-16T09:38:45Z</time>
      </trkpt>
      <trkpt lat="48.29008" lon="-4.32745">
        <ele>26.09</ele>
        <time>2013-04-16T09:39:08Z</time>
      </trkpt>
      <trkpt lat="48.28998" lon="-4.32774">
        <ele>26.57</ele>
        <time>2013-04-16T09:39:27Z</time>
      </trkpt>
      <trkpt lat="48.28992" lon="-4.328">
        <ele>27.05</ele>
        <time>2013-04-16T09:39:45Z</time>
      </trkpt>
      <trkpt lat="48.28992" lon="-4.32838">
        <ele>27.05</ele>
        <time>2013-04-16T09:40:09Z</time>
      </trkpt>
      <trkpt lat="48.28999" lon="-4.3287">
        <ele>21.77</ele>
        <time>2013-04-16T09:41:00Z</time>
      </trkpt>
      <trkpt lat="48.28999" lon="-4.32905">
        <ele>20.81</ele>
        <time>2013-04-16T09:41:48Z</time>
      </trkpt>
      <trkpt lat="48.28993" lon="-4.32949">
        <ele>21.29</ele>
        <time>2013-04-16T09:42:09Z</time>
      </trkpt>
      <trkpt lat="48.28992" lon="-4.32981">
        <ele>22.73</ele>
        <time>2013-04-16T09:42:44Z</time>
      </trkpt>
      <trkpt lat="48.28987" lon="-4.33019">
        <ele>22.73</ele>
        <time>2013-04-16T09:43:05Z</time>
      </trkpt>
      <trkpt lat="48.28983" lon="-4.3306">
        <ele>22.73</ele>
        <time>2013-04-16T09:43:26Z</time>
      </trkpt>
      <trkpt lat="48.28974" lon="-4.33093">
        <ele>21.77</ele>
        <time>2013-04-16T09:43:52Z</time>
      </trkpt>
      <trkpt lat="48.28952" lon="-4.33123">
        <ele>30.9</ele>
        <time>2013-04-16T09:44:52Z</time>
      </trkpt>
      <trkpt lat="48.28934" lon="-4.33149">
        <ele>30.9</ele>
        <time>2013-04-16T09:45:27Z</time>
      </trkpt>
      <trkpt lat="48.28919" lon="-4.33165">
        <ele>28.98</ele>
        <time>2013-04-16T09:45:49Z</time>
      </trkpt>
      <trkpt lat="48.28899" lon="-4.33177">
        <ele>29.94</ele>
        <time>2013-04-16T09:46:08Z</time>
      </trkpt>
      <trkpt lat="48.28883" lon="-4.33189">
        <ele>31.86</ele>
        <time>2013-04-16T09:46:30Z</time>
      </trkpt>
      <trkpt lat="48.28865" lon="-4.33207">
        <ele>34.74</ele>
        <time>2013-04-16T09:47:04Z</time>
      </trkpt>
      <trkpt lat="48.28846" lon="-4.33226">
        <ele>36.67</ele>
        <time>2013-04-16T09:47:28Z</time>
      </trkpt>
      <trkpt lat="48.28827" lon="-4.33241">
        <ele>39.07</ele>
        <time>2013-04-16T09:48:01Z</time>
      </trkpt>
      <trkpt lat="48.2881" lon="-4.33258">
        <ele>40.03</ele>
        <time>2013-04-16T09:48:18Z</time>
      </trkpt>
      <trkpt lat="48.28792" lon="-4.33262">
        <ele>47.72</ele>
        <time>2013-04-16T09:49:06Z</time>
      </trkpt>
      <trkpt lat="48.28768" lon="-4.33281">
        <ele>49.65</ele>
        <time>2013-04-16T09:49:35Z</time>
      </trkpt>
      <trkpt lat="48.28756" lon="-4.33293">
        <ele>52.05</ele>
        <time>2013-04-16T09:50:02Z</time>
      </trkpt>
      <trkpt lat="48.28747" lon="-4.333">
        <ele>51.09</ele>
        <time>2013-04-16T09:50:32Z</time>
      </trkpt>
      <trkpt lat="48.28732" lon="-4.3331">
        <ele>53.01</ele>
        <time>2013-04-16T09:50:44Z</time>
      </trkpt>
      <trkpt lat="48.28725" lon="-4.33322">
        <ele>47.72</ele>
        <time>2013-04-16T09:50:58Z</time>
      </trkpt>
      <trkpt lat="48.28718" lon="-4.33332">
        <ele>46.28</ele>
        <time>2013-04-16T09:51:27Z</time>
      </trkpt>
      <trkpt lat="48.28718" lon="-4.33347">
        <ele>45.32</ele>
        <time>2013-04-16T09:52:34Z</time>
      </trkpt>
      <trkpt lat="48.28719" lon="-4.33362">
        <ele>42.92</ele>
        <time>2013-04-16T09:52:48Z</time>
      </trkpt>
      <trkpt lat="48.28718" lon="-4.33378">
        <ele>40.99</ele>
        <time>2013-04-16T09:53:03Z</time>
      </trkpt>
      <trkpt lat="48.28716" lon="-4.33393">
        <ele>38.11</ele>
        <time>2013-04-16T09:53:18Z</time>
      </trkpt>
      <trkpt lat="48.28707" lon="-4.33399">
        <ele>37.63</ele>
        <time>2013-04-16T09:53:30Z</time>
      </trkpt>
      <trkpt lat="48.28701" lon="-4.33409">
        <ele>34.74</ele>
        <time>2013-04-16T09:53:41Z</time>
      </trkpt>
      <trkpt lat="48.28701" lon="-4.33423">
        <ele>34.26</ele>
        <time>2013-04-16T09:53:53Z</time>
      </trkpt>
      <trkpt lat="48.28695" lon="-4.3344">
        <ele>27.53</ele>
        <time>2013-04-16T09:54:53Z</time>
      </trkpt>
      <trkpt lat="48.28684" lon="-4.33457">
        <ele>21.29</ele>
        <time>2013-04-16T09:57:27Z</time>
      </trkpt>
      <trkpt lat="48.2868" lon="-4.33465">
        <ele>17.44</ele>
        <time>2013-04-16T10:01:06Z</time>
      </trkpt>
      <trkpt lat="48.28666" lon="-4.33476">
        <ele>12.63</ele>
        <time>2013-04-16T10:01:54Z</time>
      </trkpt>
      <trkpt lat="48.28661" lon="-4.33487">
        <ele>8.31</ele>
        <time>2013-04-16T10:02:18Z</time>
      </trkpt>
      <trkpt lat="48.28649" lon="-4.3349">
        <ele>0.62</ele>
        <time>2013-04-16T10:03:16Z</time>
      </trkpt>
      <trkpt lat="48.28641" lon="-4.3351">
        <ele>0.14</ele>
        <time>2013-04-16T10:03:53Z</time>
      </trkpt>
      <trkpt lat="48.28646" lon="-4.33526">
        <ele>-0.34</ele>
        <time>2013-04-16T10:04:05Z</time>
      </trkpt>
      <trkpt lat="48.28648" lon="-4.3354">
        <ele>-0.82</ele>
        <time>2013-04-16T10:04:26Z</time>
      </trkpt>
      <trkpt lat="48.28651" lon="-4.33541">
        <ele>-0.34</ele>
        <time>2013-04-16T10:04:51Z</time>
      </trkpt>
      <trkpt lat="48.28649" lon="-4.33555">
        <ele>-1.3</ele>
        <time>2013-04-16T10:05:01Z</time>
      </trkpt>
      <trkpt lat="48.28653" lon="-4.33569">
        <ele>-2.27</ele>
        <time>2013-04-16T10:05:11Z</time>
      </trkpt>
      <trkpt lat="48.28656" lon="-4.33583">
        <ele>-2.27</ele>
        <time>2013-04-16T10:05:22Z</time>
      </trkpt>
      <trkpt lat="48.2866" lon="-4.33588">
        <ele>-2.75</ele>
        <time>2013-04-16T10:05:57Z</time>
      </trkpt>
      <trkpt lat="48.28667" lon="-4.33583">
        <ele>-2.75</ele>
        <time>2013-04-16T10:06:11Z</time>
      </trkpt>
      <trkpt lat="48.28667" lon="-4.33594">
        <ele>-3.23</ele>
        <time>2013-04-16T10:06:27Z</time>
      </trkpt>
      <trkpt lat="48.28662" lon="-4.33603">
        <ele>-4.19</ele>
        <time>2013-04-16T10:06:49Z</time>
      </trkpt>
      <trkpt lat="48.28654" lon="-4.3361">
        <ele>-3.71</ele>
        <time>2013-04-16T10:07:05Z</time>
      </trkpt>
      <trkpt lat="48.28643" lon="-4.33615">
        <ele>-2.75</ele>
        <time>2013-04-16T10:07:25Z</time>
      </trkpt>
      <trkpt lat="48.28643" lon="-4.33618">
        <ele>-1.79</ele>
        <time>2013-04-16T10:31:50Z</time>
      </trkpt>
      <trkpt lat="48.28643" lon="-4.33616">
        <ele>-0.34</ele>
        <time>2013-04-16T10:38:39Z</time>
      </trkpt>
      <trkpt lat="48.28651" lon="-4.33608">
        <ele>0.62</ele>
        <time>2013-04-16T10:38:59Z</time>
      </trkpt>
      <trkpt lat="48.28659" lon="-4.33595">
        <ele>0.62</ele>
        <time>2013-04-16T10:39:21Z</time>
      </trkpt>
      <trkpt lat="48.28657" lon="-4.33591">
        <ele>1.1</ele>
        <time>2013-04-16T10:42:41Z</time>
      </trkpt>
      <trkpt lat="48.28656" lon="-4.33581">
        <ele>0.62</ele>
        <time>2013-04-16T10:47:01Z</time>
      </trkpt>
      <trkpt lat="48.28652" lon="-4.33566">
        <ele>1.1</ele>
        <time>2013-04-16T10:47:10Z</time>
      </trkpt>
      <trkpt lat="48.28648" lon="-4.33551">
        <ele>2.54</ele>
        <time>2013-04-16T10:47:20Z</time>
      </trkpt>
      <trkpt lat="48.28645" lon="-4.33532">
        <ele>3.5</ele>
        <time>2013-04-16T10:47:31Z</time>
      </trkpt>
      <trkpt lat="48.28644" lon="-4.33513">
        <ele>3.98</ele>
        <time>2013-04-16T10:47:42Z</time>
      </trkpt>
      <trkpt lat="48.28642" lon="-4.33496">
        <ele>3.98</ele>
        <time>2013-04-16T10:47:54Z</time>
      </trkpt>
      <trkpt lat="48.2864" lon="-4.33476">
        <ele>3.98</ele>
        <time>2013-04-16T10:48:07Z</time>
      </trkpt>
      <trkpt lat="48.28639" lon="-4.33454">
        <ele>4.46</ele>
        <time>2013-04-16T10:48:18Z</time>
      </trkpt>
      <trkpt lat="48.28633" lon="-4.33432">
        <ele>4.46</ele>
        <time>2013-04-16T10:48:30Z</time>
      </trkpt>
      <trkpt lat="48.28627" lon="-4.33414">
        <ele>5.42</ele>
        <time>2013-04-16T10:48:41Z</time>
      </trkpt>
      <trkpt lat="48.28624" lon="-4.33396">
        <ele>5.42</ele>
        <time>2013-04-16T10:48:53Z</time>
      </trkpt>
      <trkpt lat="48.28619" lon="-4.33376">
        <ele>6.39</ele>
        <time>2013-04-16T10:49:06Z</time>
      </trkpt>
      <trkpt lat="48.28615" lon="-4.33359">
        <ele>6.39</ele>
        <time>2013-04-16T10:49:17Z</time>
      </trkpt>
      <trkpt lat="48.28608" lon="-4.33324">
        <ele>7.83</ele>
        <time>2013-04-16T10:49:38Z</time>
      </trkpt>
      <trkpt lat="48.28604" lon="-4.33302">
        <ele>8.31</ele>
        <time>2013-04-16T10:49:53Z</time>
      </trkpt>
      <trkpt lat="48.28599" lon="-4.33282">
        <ele>9.27</ele>
        <time>2013-04-16T10:50:03Z</time>
      </trkpt>
      <trkpt lat="48.28594" lon="-4.33267">
        <ele>9.75</ele>
        <time>2013-04-16T10:50:13Z</time>
      </trkpt>
      <trkpt lat="48.28593" lon="-4.33245">
        <ele>9.75</ele>
        <time>2013-04-16T10:50:28Z</time>
      </trkpt>
      <trkpt lat="48.28592" lon="-4.33227">
        <ele>10.71</ele>
        <time>2013-04-16T10:50:40Z</time>
      </trkpt>
      <trkpt lat="48.2859" lon="-4.33191">
        <ele>12.15</ele>
        <time>2013-04-16T10:51:03Z</time>
      </trkpt>
      <trkpt lat="48.28588" lon="-4.33164">
        <ele>13.6</ele>
        <time>2013-04-16T10:51:18Z</time>
      </trkpt>
      <trkpt lat="48.28588" lon="-4.33142">
        <ele>14.08</ele>
        <time>2013-04-16T10:51:30Z</time>
      </trkpt>
      <trkpt lat="48.28588" lon="-4.33124">
        <ele>14.56</ele>
        <time>2013-04-16T10:51:43Z</time>
      </trkpt>
      <trkpt lat="48.28586" lon="-4.33106">
        <ele>15.52</ele>
        <time>2013-04-16T10:51:56Z</time>
      </trkpt>
      <trkpt lat="48.28588" lon="-4.33077">
        <ele>16.48</ele>
        <time>2013-04-16T10:52:11Z</time>
      </trkpt>
      <trkpt lat="48.28589" lon="-4.3306">
        <ele>16.96</ele>
        <time>2013-04-16T10:52:22Z</time>
      </trkpt>
      <trkpt lat="48.28596" lon="-4.33039">
        <ele>17.44</ele>
        <time>2013-04-16T10:52:33Z</time>
      </trkpt>
      <trkpt lat="48.28598" lon="-4.33016">
        <ele>18.4</ele>
        <time>2013-04-16T10:52:45Z</time>
      </trkpt>
      <trkpt lat="48.28604" lon="-4.32997">
        <ele>18.88</ele>
        <time>2013-04-16T10:52:56Z</time>
      </trkpt>
      <trkpt lat="48.28608" lon="-4.32981">
        <ele>18.88</ele>
        <time>2013-04-16T10:53:06Z</time>
      </trkpt>
      <trkpt lat="48.28612" lon="-4.32957">
        <ele>19.36</ele>
        <time>2013-04-16T10:53:23Z</time>
      </trkpt>
      <trkpt lat="48.28622" lon="-4.32932">
        <ele>20.81</ele>
        <time>2013-04-16T10:54:08Z</time>
      </trkpt>
      <trkpt lat="48.28622" lon="-4.3291">
        <ele>21.77</ele>
        <time>2013-04-16T10:54:27Z</time>
      </trkpt>
      <trkpt lat="48.28627" lon="-4.32889">
        <ele>23.21</ele>
        <time>2013-04-16T10:54:39Z</time>
      </trkpt>
      <trkpt lat="48.28632" lon="-4.32879">
        <ele>22.73</ele>
        <time>2013-04-16T10:54:55Z</time>
      </trkpt>
      <trkpt lat="48.28637" lon="-4.32855">
        <ele>23.21</ele>
        <time>2013-04-16T10:55:06Z</time>
      </trkpt>
      <trkpt lat="48.2864" lon="-4.3284">
        <ele>23.21</ele>
        <time>2013-04-16T10:55:16Z</time>
      </trkpt>
      <trkpt lat="48.28644" lon="-4.32821">
        <ele>23.69</ele>
        <time>2013-04-16T10:55:26Z</time>
      </trkpt>
      <trkpt lat="48.28654" lon="-4.32799">
        <ele>23.69</ele>
        <time>2013-04-16T10:55:37Z</time>
      </trkpt>
      <trkpt lat="48.2866" lon="-4.32778">
        <ele>23.69</ele>
        <time>2013-04-16T10:55:47Z</time>
      </trkpt>
      <trkpt lat="48.28662" lon="-4.32762">
        <ele>24.65</ele>
        <time>2013-04-16T10:55:57Z</time>
      </trkpt>
      <trkpt lat="48.28668" lon="-4.32747">
        <ele>25.61</ele>
        <time>2013-04-16T10:56:08Z</time>
      </trkpt>
      <trkpt lat="48.28679" lon="-4.32731">
        <ele>26.57</ele>
        <time>2013-04-16T10:56:20Z</time>
      </trkpt>
      <trkpt lat="48.28684" lon="-4.32717">
        <ele>27.53</ele>
        <time>2013-04-16T10:56:30Z</time>
      </trkpt>
      <trkpt lat="48.28687" lon="-4.32699">
        <ele>28.5</ele>
        <time>2013-04-16T10:56:42Z</time>
      </trkpt>
      <trkpt lat="48.2869" lon="-4.32683">
        <ele>28.02</ele>
        <time>2013-04-16T10:56:51Z</time>
      </trkpt>
      <trkpt lat="48.28694" lon="-4.32668">
        <ele>29.46</ele>
        <time>2013-04-16T10:57:03Z</time>
      </trkpt>
      <trkpt lat="48.28703" lon="-4.32649">
        <ele>31.38</ele>
        <time>2013-04-16T10:57:14Z</time>
      </trkpt>
      <trkpt lat="48.28709" lon="-4.32633">
        <ele>32.34</ele>
        <time>2013-04-16T10:57:25Z</time>
      </trkpt>
      <trkpt lat="48.28713" lon="-4.32614">
        <ele>32.82</ele>
        <time>2013-04-16T10:57:37Z</time>
      </trkpt>
      <trkpt lat="48.28715" lon="-4.32596">
        <ele>33.78</ele>
        <time>2013-04-16T10:57:47Z</time>
      </trkpt>
      <trkpt lat="48.28719" lon="-4.32579">
        <ele>33.78</ele>
        <time>2013-04-16T10:57:58Z</time>
      </trkpt>
      <trkpt lat="48.28723" lon="-4.32563">
        <ele>33.3</ele>
        <time>2013-04-16T10:58:07Z</time>
      </trkpt>
      <trkpt lat="48.28726" lon="-4.32547">
        <ele>33.3</ele>
        <time>2013-04-16T10:58:16Z</time>
      </trkpt>
      <trkpt lat="48.28729" lon="-4.32529">
        <ele>33.3</ele>
        <time>2013-04-16T10:58:26Z</time>
      </trkpt>
      <trkpt lat="48.28732" lon="-4.32513">
        <ele>33.78</ele>
        <time>2013-04-16T10:58:36Z</time>
      </trkpt>
      <trkpt lat="48.28737" lon="-4.32495">
        <ele>33.3</ele>
        <time>2013-04-16T10:58:46Z</time>
      </trkpt>
      <trkpt lat="48.28744" lon="-4.32475">
        <ele>34.74</ele>
        <time>2013-04-16T10:59:00Z</time>
      </trkpt>
      <trkpt lat="48.2875" lon="-4.32453">
        <ele>35.71</ele>
        <time>2013-04-16T10:59:14Z</time>
      </trkpt>
      <trkpt lat="48.2875" lon="-4.32433">
        <ele>36.67</ele>
        <time>2013-04-16T10:59:24Z</time>
      </trkpt>
      <trkpt lat="48.28753" lon="-4.32418">
        <ele>37.63</ele>
        <time>2013-04-16T10:59:33Z</time>
      </trkpt>
      <trkpt lat="48.28753" lon="-4.32399">
        <ele>38.11</ele>
        <time>2013-04-16T10:59:44Z</time>
      </trkpt>
      <trkpt lat="48.28755" lon="-4.32385">
        <ele>37.15</ele>
        <time>2013-04-16T10:59:53Z</time>
      </trkpt>
      <trkpt lat="48.28754" lon="-4.32365">
        <ele>37.15</ele>
        <time>2013-04-16T11:00:04Z</time>
      </trkpt>
      <trkpt lat="48.28754" lon="-4.32348">
        <ele>38.11</ele>
        <time>2013-04-16T11:00:15Z</time>
      </trkpt>
      <trkpt lat="48.28755" lon="-4.32326">
        <ele>38.11</ele>
        <time>2013-04-16T11:00:28Z</time>
      </trkpt>
      <trkpt lat="48.28758" lon="-4.32303">
        <ele>38.59</ele>
        <time>2013-04-16T11:00:41Z</time>
      </trkpt>
      <trkpt lat="48.28762" lon="-4.32283">
        <ele>39.07</ele>
        <time>2013-04-16T11:00:53Z</time>
      </trkpt>
      <trkpt lat="48.28762" lon="-4.32265">
        <ele>39.55</ele>
        <time>2013-04-16T11:01:03Z</time>
      </trkpt>
      <trkpt lat="48.28764" lon="-4.32246">
        <ele>39.55</ele>
        <time>2013-04-16T11:01:14Z</time>
      </trkpt>
      <trkpt lat="48.28765" lon="-4.32228">
        <ele>39.55</ele>
        <time>2013-04-16T11:01:26Z</time>
      </trkpt>
      <trkpt lat="48.28769" lon="-4.32198">
        <ele>39.07</ele>
        <time>2013-04-16T11:01:43Z</time>
      </trkpt>
      <trkpt lat="48.28766" lon="-4.32175">
        <ele>38.59</ele>
        <time>2013-04-16T11:01:54Z</time>
      </trkpt>
      <trkpt lat="48.28764" lon="-4.32155">
        <ele>38.59</ele>
        <time>2013-04-16T11:02:07Z</time>
      </trkpt>
      <trkpt lat="48.28765" lon="-4.32128">
        <ele>39.07</ele>
        <time>2013-04-16T11:02:21Z</time>
      </trkpt>
      <trkpt lat="48.28761" lon="-4.32107">
        <ele>40.03</ele>
        <time>2013-04-16T11:02:30Z</time>
      </trkpt>
      <trkpt lat="48.28765" lon="-4.32088">
        <ele>40.03</ele>
        <time>2013-04-16T11:02:42Z</time>
      </trkpt>
      <trkpt lat="48.28769" lon="-4.32072">
        <ele>40.99</ele>
        <time>2013-04-16T11:02:52Z</time>
      </trkpt>
      <trkpt lat="48.28778" lon="-4.32054">
        <ele>42.92</ele>
        <time>2013-04-16T11:03:03Z</time>
      </trkpt>
      <trkpt lat="48.28784" lon="-4.32041">
        <ele>43.88</ele>
        <time>2013-04-16T11:03:13Z</time>
      </trkpt>
      <trkpt lat="48.28789" lon="-4.32028">
        <ele>44.36</ele>
        <time>2013-04-16T11:03:22Z</time>
      </trkpt>
      <trkpt lat="48.28795" lon="-4.32014">
        <ele>44.84</ele>
        <time>2013-04-16T11:03:31Z</time>
      </trkpt>
      <trkpt lat="48.28799" lon="-4.32">
        <ele>44.84</ele>
        <time>2013-04-16T11:03:40Z</time>
      </trkpt>
      <trkpt lat="48.288" lon="-4.31986">
        <ele>44.36</ele>
        <time>2013-04-16T11:03:48Z</time>
      </trkpt>
      <trkpt lat="48.28803" lon="-4.31972">
        <ele>44.36</ele>
        <time>2013-04-16T11:03:57Z</time>
      </trkpt>
      <trkpt lat="48.28807" lon="-4.31958">
        <ele>45.32</ele>
        <time>2013-04-16T11:04:06Z</time>
      </trkpt>
      <trkpt lat="48.28808" lon="-4.31928">
        <ele>45.8</ele>
        <time>2013-04-16T11:04:21Z</time>
      </trkpt>
      <trkpt lat="48.28802" lon="-4.31899">
        <ele>45.32</ele>
        <time>2013-04-16T11:04:40Z</time>
      </trkpt>
      <trkpt lat="48.28796" lon="-4.31881">
        <ele>45.8</ele>
        <time>2013-04-16T11:04:58Z</time>
      </trkpt>
      <trkpt lat="48.28793" lon="-4.31857">
        <ele>45.8</ele>
        <time>2013-04-16T11:05:11Z</time>
      </trkpt>
      <trkpt lat="48.28792" lon="-4.31832">
        <ele>46.28</ele>
        <time>2013-04-16T11:05:20Z</time>
      </trkpt>
      <trkpt lat="48.28795" lon="-4.31812">
        <ele>46.76</ele>
        <time>2013-04-16T11:05:31Z</time>
      </trkpt>
      <trkpt lat="48.28797" lon="-4.31796">
        <ele>47.24</ele>
        <time>2013-04-16T11:05:42Z</time>
      </trkpt>
      <trkpt lat="48.288" lon="-4.31779">
        <ele>47.72</ele>
        <time>2013-04-16T11:05:52Z</time>
      </trkpt>
      <trkpt lat="48.28803" lon="-4.31763">
        <ele>49.16</ele>
        <time>2013-04-16T11:06:02Z</time>
      </trkpt>
      <trkpt lat="48.28809" lon="-4.31747">
        <ele>49.65</ele>
        <time>2013-04-16T11:06:13Z</time>
      </trkpt>
      <trkpt lat="48.28813" lon="-4.3173">
        <ele>49.16</ele>
        <time>2013-04-16T11:06:24Z</time>
      </trkpt>
      <trkpt lat="48.28816" lon="-4.31711">
        <ele>49.65</ele>
        <time>2013-04-16T11:06:36Z</time>
      </trkpt>
      <trkpt lat="48.28821" lon="-4.31699">
        <ele>52.05</ele>
        <time>2013-04-16T11:06:45Z</time>
      </trkpt>
      <trkpt lat="48.28826" lon="-4.31682">
        <ele>52.53</ele>
        <time>2013-04-16T11:06:58Z</time>
      </trkpt>
      <trkpt lat="48.28828" lon="-4.31664">
        <ele>52.53</ele>
        <time>2013-04-16T11:07:09Z</time>
      </trkpt>
      <trkpt lat="48.28831" lon="-4.31648">
        <ele>53.49</ele>
        <time>2013-04-16T11:07:19Z</time>
      </trkpt>
      <trkpt lat="48.28838" lon="-4.31635">
        <ele>54.45</ele>
        <time>2013-04-16T11:07:30Z</time>
      </trkpt>
      <trkpt lat="48.28843" lon="-4.31616">
        <ele>55.41</ele>
        <time>2013-04-16T11:07:43Z</time>
      </trkpt>
      <trkpt lat="48.28845" lon="-4.31597">
        <ele>55.41</ele>
        <time>2013-04-16T11:07:53Z</time>
      </trkpt>
      <trkpt lat="48.28848" lon="-4.3158">
        <ele>56.37</ele>
        <time>2013-04-16T11:08:03Z</time>
      </trkpt>
      <trkpt lat="48.2885" lon="-4.31566">
        <ele>57.82</ele>
        <time>2013-04-16T11:08:13Z</time>
      </trkpt>
      <trkpt lat="48.28852" lon="-4.3155">
        <ele>56.86</ele>
        <time>2013-04-16T11:08:24Z</time>
      </trkpt>
      <trkpt lat="48.28858" lon="-4.31535">
        <ele>58.3</ele>
        <time>2013-04-16T11:08:34Z</time>
      </trkpt>
      <trkpt lat="48.28863" lon="-4.31521">
        <ele>58.78</ele>
        <time>2013-04-16T11:08:43Z</time>
      </trkpt>
      <trkpt lat="48.28872" lon="-4.3151">
        <ele>59.74</ele>
        <time>2013-04-16T11:08:53Z</time>
      </trkpt>
      <trkpt lat="48.28888" lon="-4.31502">
        <ele>59.74</ele>
        <time>2013-04-16T11:09:22Z</time>
      </trkpt>
      <trkpt lat="48.28901" lon="-4.31496">
        <ele>59.74</ele>
        <time>2013-04-16T11:09:35Z</time>
      </trkpt>
      <trkpt lat="48.28911" lon="-4.31492">
        <ele>61.18</ele>
        <time>2013-04-16T11:09:46Z</time>
      </trkpt>
      <trkpt lat="48.28927" lon="-4.31488">
        <ele>62.14</ele>
        <time>2013-04-16T11:09:58Z</time>
      </trkpt>
      <trkpt lat="48.28938" lon="-4.31482">
        <ele>63.1</ele>
        <time>2013-04-16T11:10:12Z</time>
      </trkpt>
      <trkpt lat="48.28949" lon="-4.31478">
        <ele>64.07</ele>
        <time>2013-04-16T11:10:25Z</time>
      </trkpt>
      <trkpt lat="48.28959" lon="-4.31474">
        <ele>65.03</ele>
        <time>2013-04-16T11:10:36Z</time>
      </trkpt>
      <trkpt lat="48.28989" lon="-4.31469">
        <ele>66.95</ele>
        <time>2013-04-16T11:10:53Z</time>
      </trkpt>
      <trkpt lat="48.29002" lon="-4.31462">
        <ele>67.43</ele>
        <time>2013-04-16T11:11:07Z</time>
      </trkpt>
      <trkpt lat="48.29007" lon="-4.31451">
        <ele>69.35</ele>
        <time>2013-04-16T11:11:19Z</time>
      </trkpt>
      <trkpt lat="48.29013" lon="-4.31437">
        <ele>70.79</ele>
        <time>2013-04-16T11:11:30Z</time>
      </trkpt>
      <trkpt lat="48.29018" lon="-4.3142">
        <ele>71.27</ele>
        <time>2013-04-16T11:11:40Z</time>
      </trkpt>
      <trkpt lat="48.29024" lon="-4.31407">
        <ele>71.27</ele>
        <time>2013-04-16T11:11:48Z</time>
      </trkpt>
      <trkpt lat="48.29028" lon="-4.31392">
        <ele>72.72</ele>
        <time>2013-04-16T11:11:57Z</time>
      </trkpt>
      <trkpt lat="48.29034" lon="-4.31376">
        <ele>73.2</ele>
        <time>2013-04-16T11:12:08Z</time>
      </trkpt>
      <trkpt lat="48.29036" lon="-4.31358">
        <ele>73.68</ele>
        <time>2013-04-16T11:12:18Z</time>
      </trkpt>
      <trkpt lat="48.29037" lon="-4.31344">
        <ele>74.16</ele>
        <time>2013-04-16T11:12:27Z</time>
      </trkpt>
      <trkpt lat="48.2904" lon="-4.31331">
        <ele>75.12</ele>
        <time>2013-04-16T11:12:36Z</time>
      </trkpt>
      <trkpt lat="48.29046" lon="-4.31314">
        <ele>75.12</ele>
        <time>2013-04-16T11:12:46Z</time>
      </trkpt>
      <trkpt lat="48.2905" lon="-4.31297">
        <ele>75.6</ele>
        <time>2013-04-16T11:12:56Z</time>
      </trkpt>
      <trkpt lat="48.29055" lon="-4.31282">
        <ele>76.56</ele>
        <time>2013-04-16T11:13:05Z</time>
      </trkpt>
      <trkpt lat="48.29059" lon="-4.31268">
        <ele>77.04</ele>
        <time>2013-04-16T11:13:15Z</time>
      </trkpt>
      <trkpt lat="48.29062" lon="-4.31254">
        <ele>77.52</ele>
        <time>2013-04-16T11:13:24Z</time>
      </trkpt>
      <trkpt lat="48.29067" lon="-4.31238">
        <ele>78.48</ele>
        <time>2013-04-16T11:13:33Z</time>
      </trkpt>
      <trkpt lat="48.2907" lon="-4.31223">
        <ele>78.97</ele>
        <time>2013-04-16T11:13:43Z</time>
      </trkpt>
      <trkpt lat="48.29073" lon="-4.31207">
        <ele>78.97</ele>
        <time>2013-04-16T11:13:53Z</time>
      </trkpt>
      <trkpt lat="48.29078" lon="-4.31192">
        <ele>78.97</ele>
        <time>2013-04-16T11:14:05Z</time>
      </trkpt>
      <trkpt lat="48.29085" lon="-4.31179">
        <ele>78.97</ele>
        <time>2013-04-16T11:14:16Z</time>
      </trkpt>
      <trkpt lat="48.29092" lon="-4.31164">
        <ele>80.41</ele>
        <time>2013-04-16T11:14:25Z</time>
      </trkpt>
      <trkpt lat="48.29094" lon="-4.3115">
        <ele>81.37</ele>
        <time>2013-04-16T11:14:33Z</time>
      </trkpt>
      <trkpt lat="48.29085" lon="-4.31149">
        <ele>80.89</ele>
        <time>2013-04-16T11:14:42Z</time>
      </trkpt>
      <trkpt lat="48.29076" lon="-4.31151">
        <ele>79.93</ele>
        <time>2013-04-16T11:14:51Z</time>
      </trkpt>
      <trkpt lat="48.29066" lon="-4.31151">
        <ele>78</ele>
        <time>2013-04-16T11:15:03Z</time>
      </trkpt>
      <trkpt lat="48.29062" lon="-4.31152">
        <ele>78</ele>
        <time>2013-04-16T11:17:38Z</time>
      </trkpt>
      <trkpt lat="48.29049" lon="-4.31151">
        <ele>77.04</ele>
        <time>2013-04-16T11:17:52Z</time>
      </trkpt>
      <trkpt lat="48.29038" lon="-4.3115">
        <ele>76.56</ele>
        <time>2013-04-16T11:18:11Z</time>
      </trkpt>
      <trkpt lat="48.29027" lon="-4.31146">
        <ele>75.6</ele>
        <time>2013-04-16T11:18:25Z</time>
      </trkpt>
      <trkpt lat="48.29016" lon="-4.31142">
        <ele>74.64</ele>
        <time>2013-04-16T11:18:48Z</time>
      </trkpt>
      <trkpt lat="48.29005" lon="-4.31138">
        <ele>73.68</ele>
        <time>2013-04-16T11:19:02Z</time>
      </trkpt>
      <trkpt lat="48.28996" lon="-4.31132">
        <ele>73.2</ele>
        <time>2013-04-16T11:19:13Z</time>
      </trkpt>
      <trkpt lat="48.28986" lon="-4.3113">
        <ele>73.2</ele>
        <time>2013-04-16T11:19:53Z</time>
      </trkpt>
      <trkpt lat="48.28977" lon="-4.31123">
        <ele>72.24</ele>
        <time>2013-04-16T11:20:03Z</time>
      </trkpt>
      <trkpt lat="48.2897" lon="-4.31117">
        <ele>72.24</ele>
        <time>2013-04-16T11:20:28Z</time>
      </trkpt>
      <trkpt lat="48.28962" lon="-4.31105">
        <ele>71.27</ele>
        <time>2013-04-16T11:20:38Z</time>
      </trkpt>
      <trkpt lat="48.28953" lon="-4.31097">
        <ele>70.79</ele>
        <time>2013-04-16T11:20:47Z</time>
      </trkpt>
      <trkpt lat="48.28943" lon="-4.31093">
        <ele>68.87</ele>
        <time>2013-04-16T11:20:57Z</time>
      </trkpt>
      <trkpt lat="48.28932" lon="-4.31094">
        <ele>67.91</ele>
        <time>2013-04-16T11:21:07Z</time>
      </trkpt>
      <trkpt lat="48.28921" lon="-4.31096">
        <ele>66.47</ele>
        <time>2013-04-16T11:21:17Z</time>
      </trkpt>
      <trkpt lat="48.2891" lon="-4.31096">
        <ele>65.51</ele>
        <time>2013-04-16T11:21:27Z</time>
      </trkpt>
      <trkpt lat="48.289" lon="-4.31097">
        <ele>64.07</ele>
        <time>2013-04-16T11:21:36Z</time>
      </trkpt>
      <trkpt lat="48.2889" lon="-4.311">
        <ele>63.58</ele>
        <time>2013-04-16T11:21:45Z</time>
      </trkpt>
      <trkpt lat="48.28878" lon="-4.31103">
        <ele>63.1</ele>
        <time>2013-04-16T11:21:54Z</time>
      </trkpt>
      <trkpt lat="48.28867" lon="-4.31105">
        <ele>62.14</ele>
        <time>2013-04-16T11:22:04Z</time>
      </trkpt>
      <trkpt lat="48.28855" lon="-4.31111">
        <ele>60.22</ele>
        <time>2013-04-16T11:22:17Z</time>
      </trkpt>
      <trkpt lat="48.28844" lon="-4.31116">
        <ele>59.74</ele>
        <time>2013-04-16T11:22:26Z</time>
      </trkpt>
      <trkpt lat="48.28834" lon="-4.31125">
        <ele>58.3</ele>
        <time>2013-04-16T11:22:36Z</time>
      </trkpt>
      <trkpt lat="48.28823" lon="-4.31133">
        <ele>58.3</ele>
        <time>2013-04-16T11:22:46Z</time>
      </trkpt>
      <trkpt lat="48.28814" lon="-4.31138">
        <ele>58.3</ele>
        <time>2013-04-16T11:22:54Z</time>
      </trkpt>
      <trkpt lat="48.28805" lon="-4.31145">
        <ele>58.78</ele>
        <time>2013-04-16T11:23:01Z</time>
      </trkpt>
      <trkpt lat="48.28795" lon="-4.31151">
        <ele>57.34</ele>
        <time>2013-04-16T11:23:09Z</time>
      </trkpt>
      <trkpt lat="48.28785" lon="-4.31158">
        <ele>57.34</ele>
        <time>2013-04-16T11:23:18Z</time>
      </trkpt>
      <trkpt lat="48.28776" lon="-4.31164">
        <ele>57.34</ele>
        <time>2013-04-16T11:23:26Z</time>
      </trkpt>
      <trkpt lat="48.28767" lon="-4.31169">
        <ele>56.86</ele>
        <time>2013-04-16T11:23:34Z</time>
      </trkpt>
      <trkpt lat="48.28757" lon="-4.31175">
        <ele>56.37</ele>
        <time>2013-04-16T11:23:43Z</time>
      </trkpt>
      <trkpt lat="48.28748" lon="-4.31181">
        <ele>55.89</ele>
        <time>2013-04-16T11:23:51Z</time>
      </trkpt>
      <trkpt lat="48.28738" lon="-4.31186">
        <ele>54.93</ele>
        <time>2013-04-16T11:24:01Z</time>
      </trkpt>
      <trkpt lat="48.28729" lon="-4.31191">
        <ele>53.49</ele>
        <time>2013-04-16T11:24:09Z</time>
      </trkpt>
      <trkpt lat="48.28719" lon="-4.31192">
        <ele>52.05</ele>
        <time>2013-04-16T11:24:18Z</time>
      </trkpt>
      <trkpt lat="48.2871" lon="-4.31188">
        <ele>51.09</ele>
        <time>2013-04-16T11:24:26Z</time>
      </trkpt>
      <trkpt lat="48.28701" lon="-4.31178">
        <ele>50.13</ele>
        <time>2013-04-16T11:24:34Z</time>
      </trkpt>
      <trkpt lat="48.28696" lon="-4.31159">
        <ele>50.13</ele>
        <time>2013-04-16T11:24:45Z</time>
      </trkpt>
      <trkpt lat="48.28697" lon="-4.31139">
        <ele>51.57</ele>
        <time>2013-04-16T11:24:55Z</time>
      </trkpt>
      <trkpt lat="48.28698" lon="-4.3112">
        <ele>52.53</ele>
        <time>2013-04-16T11:25:06Z</time>
      </trkpt>
      <trkpt lat="48.287" lon="-4.311">
        <ele>53.49</ele>
        <time>2013-04-16T11:25:21Z</time>
      </trkpt>
      <trkpt lat="48.28703" lon="-4.3108">
        <ele>56.86</ele>
        <time>2013-04-16T11:25:33Z</time>
      </trkpt>
      <trkpt lat="48.28707" lon="-4.31064">
        <ele>58.3</ele>
        <time>2013-04-16T11:25:45Z</time>
      </trkpt>
      <trkpt lat="48.28703" lon="-4.31043">
        <ele>60.22</ele>
        <time>2013-04-16T11:26:00Z</time>
      </trkpt>
      <trkpt lat="48.28692" lon="-4.31034">
        <ele>61.66</ele>
        <time>2013-04-16T11:26:18Z</time>
      </trkpt>
      <trkpt lat="48.28681" lon="-4.31024">
        <ele>62.14</ele>
        <time>2013-04-16T11:26:27Z</time>
      </trkpt>
      <trkpt lat="48.2867" lon="-4.31012">
        <ele>62.14</ele>
        <time>2013-04-16T11:26:37Z</time>
      </trkpt>
      <trkpt lat="48.28661" lon="-4.31002">
        <ele>64.55</ele>
        <time>2013-04-16T11:26:46Z</time>
      </trkpt>
      <trkpt lat="48.28652" lon="-4.30991">
        <ele>65.03</ele>
        <time>2013-04-16T11:26:56Z</time>
      </trkpt>
      <trkpt lat="48.28644" lon="-4.30981">
        <ele>66.47</ele>
        <time>2013-04-16T11:27:17Z</time>
      </trkpt>
      <trkpt lat="48.28635" lon="-4.30968">
        <ele>67.43</ele>
        <time>2013-04-16T11:27:49Z</time>
      </trkpt>
      <trkpt lat="48.28629" lon="-4.30957">
        <ele>68.39</ele>
        <time>2013-04-16T11:28:01Z</time>
      </trkpt>
      <trkpt lat="48.28623" lon="-4.30944">
        <ele>68.87</ele>
        <time>2013-04-16T11:28:10Z</time>
      </trkpt>
      <trkpt lat="48.2862" lon="-4.30931">
        <ele>70.31</ele>
        <time>2013-04-16T11:28:19Z</time>
      </trkpt>
      <trkpt lat="48.2862" lon="-4.30915">
        <ele>70.79</ele>
        <time>2013-04-16T11:28:29Z</time>
      </trkpt>
      <trkpt lat="48.28622" lon="-4.30899">
        <ele>71.27</ele>
        <time>2013-04-16T11:28:39Z</time>
      </trkpt>
      <trkpt lat="48.28623" lon="-4.30882">
        <ele>72.24</ele>
        <time>2013-04-16T11:28:50Z</time>
      </trkpt>
      <trkpt lat="48.28623" lon="-4.30868">
        <ele>72.24</ele>
        <time>2013-04-16T11:28:58Z</time>
      </trkpt>
      <trkpt lat="48.28623" lon="-4.3085">
        <ele>73.2</ele>
        <time>2013-04-16T11:29:08Z</time>
      </trkpt>
      <trkpt lat="48.28621" lon="-4.30833">
        <ele>72.72</ele>
        <time>2013-04-16T11:29:19Z</time>
      </trkpt>
      <trkpt lat="48.28617" lon="-4.30816">
        <ele>73.2</ele>
        <time>2013-04-16T11:29:30Z</time>
      </trkpt>
      <trkpt lat="48.28615" lon="-4.30802">
        <ele>72.72</ele>
        <time>2013-04-16T11:30:06Z</time>
      </trkpt>
      <trkpt lat="48.28613" lon="-4.30786">
        <ele>72.24</ele>
        <time>2013-04-16T11:30:30Z</time>
      </trkpt>
      <trkpt lat="48.28605" lon="-4.30777">
        <ele>73.68</ele>
        <time>2013-04-16T11:30:40Z</time>
      </trkpt>
      <trkpt lat="48.28595" lon="-4.30774">
        <ele>75.12</ele>
        <time>2013-04-16T11:30:49Z</time>
      </trkpt>
      <trkpt lat="48.28584" lon="-4.30775">
        <ele>75.12</ele>
        <time>2013-04-16T11:31:00Z</time>
      </trkpt>
      <trkpt lat="48.28571" lon="-4.30779">
        <ele>76.08</ele>
        <time>2013-04-16T11:31:15Z</time>
      </trkpt>
      <trkpt lat="48.2856" lon="-4.30779">
        <ele>77.04</ele>
        <time>2013-04-16T11:31:25Z</time>
      </trkpt>
      <trkpt lat="48.28549" lon="-4.30777">
        <ele>78</ele>
        <time>2013-04-16T11:31:34Z</time>
      </trkpt>
      <trkpt lat="48.28539" lon="-4.30777">
        <ele>78.48</ele>
        <time>2013-04-16T11:31:43Z</time>
      </trkpt>
      <trkpt lat="48.28528" lon="-4.30777">
        <ele>79.45</ele>
        <time>2013-04-16T11:31:52Z</time>
      </trkpt>
      <trkpt lat="48.28518" lon="-4.30777">
        <ele>79.45</ele>
        <time>2013-04-16T11:32:00Z</time>
      </trkpt>
      <trkpt lat="48.28508" lon="-4.30777">
        <ele>81.37</ele>
        <time>2013-04-16T11:32:09Z</time>
      </trkpt>
      <trkpt lat="48.28497" lon="-4.30776">
        <ele>81.85</ele>
        <time>2013-04-16T11:32:19Z</time>
      </trkpt>
      <trkpt lat="48.28486" lon="-4.30777">
        <ele>82.81</ele>
        <time>2013-04-16T11:32:31Z</time>
      </trkpt>
      <trkpt lat="48.28475" lon="-4.30775">
        <ele>83.29</ele>
        <time>2013-04-16T11:32:45Z</time>
      </trkpt>
      <trkpt lat="48.28464" lon="-4.30767">
        <ele>86.18</ele>
        <time>2013-04-16T11:32:57Z</time>
      </trkpt>
      <trkpt lat="48.28455" lon="-4.30753">
        <ele>88.1</ele>
        <time>2013-04-16T11:33:09Z</time>
      </trkpt>
      <trkpt lat="48.28446" lon="-4.30744">
        <ele>89.54</ele>
        <time>2013-04-16T11:33:20Z</time>
      </trkpt>
      <trkpt lat="48.28436" lon="-4.30734">
        <ele>89.54</ele>
        <time>2013-04-16T11:33:29Z</time>
      </trkpt>
      <trkpt lat="48.28428" lon="-4.30724">
        <ele>90.98</ele>
        <time>2013-04-16T11:33:38Z</time>
      </trkpt>
      <trkpt lat="48.28419" lon="-4.30715">
        <ele>91.94</ele>
        <time>2013-04-16T11:33:47Z</time>
      </trkpt>
      <trkpt lat="48.28411" lon="-4.30706">
        <ele>92.42</ele>
        <time>2013-04-16T11:33:55Z</time>
      </trkpt>
      <trkpt lat="48.28401" lon="-4.30696">
        <ele>92.42</ele>
        <time>2013-04-16T11:34:05Z</time>
      </trkpt>
      <trkpt lat="48.28394" lon="-4.30689">
        <ele>92.9</ele>
        <time>2013-04-16T11:34:13Z</time>
      </trkpt>
      <trkpt lat="48.28386" lon="-4.3068">
        <ele>93.87</ele>
        <time>2013-04-16T11:34:22Z</time>
      </trkpt>
      <trkpt lat="48.28378" lon="-4.30672">
        <ele>94.35</ele>
        <time>2013-04-16T11:34:30Z</time>
      </trkpt>
      <trkpt lat="48.2837" lon="-4.30664">
        <ele>94.83</ele>
        <time>2013-04-16T11:34:38Z</time>
      </trkpt>
      <trkpt lat="48.28361" lon="-4.30658">
        <ele>94.35</ele>
        <time>2013-04-16T11:34:46Z</time>
      </trkpt>
      <trkpt lat="48.28355" lon="-4.30667">
        <ele>94.35</ele>
        <time>2013-04-16T11:34:54Z</time>
      </trkpt>
      <trkpt lat="48.28353" lon="-4.3068">
        <ele>95.31</ele>
        <time>2013-04-16T11:35:02Z</time>
      </trkpt>
      <trkpt lat="48.28351" lon="-4.30695">
        <ele>95.31</ele>
        <time>2013-04-16T11:35:10Z</time>
      </trkpt>
      <trkpt lat="48.28349" lon="-4.3071">
        <ele>95.79</ele>
        <time>2013-04-16T11:35:19Z</time>
      </trkpt>
      <trkpt lat="48.28349" lon="-4.30727">
        <ele>95.31</ele>
        <time>2013-04-16T11:35:37Z</time>
      </trkpt>
      <trkpt lat="48.28349" lon="-4.30743">
        <ele>95.31</ele>
        <time>2013-04-16T11:35:49Z</time>
      </trkpt>
      <trkpt lat="48.28349" lon="-4.30759">
        <ele>95.79</ele>
        <time>2013-04-16T11:35:57Z</time>
      </trkpt>
      <trkpt lat="48.28347" lon="-4.30773">
        <ele>95.31</ele>
        <time>2013-04-16T11:36:05Z</time>
      </trkpt>
      <trkpt lat="48.28345" lon="-4.30789">
        <ele>95.79</ele>
        <time>2013-04-16T11:36:13Z</time>
      </trkpt>
      <trkpt lat="48.28342" lon="-4.30804">
        <ele>94.83</ele>
        <time>2013-04-16T11:36:21Z</time>
      </trkpt>
      <trkpt lat="48.28338" lon="-4.3082">
        <ele>95.31</ele>
        <time>2013-04-16T11:36:30Z</time>
      </trkpt>
      <trkpt lat="48.28335" lon="-4.30835">
        <ele>94.35</ele>
        <time>2013-04-16T11:36:45Z</time>
      </trkpt>
      <trkpt lat="48.28332" lon="-4.30851">
        <ele>94.35</ele>
        <time>2013-04-16T11:36:54Z</time>
      </trkpt>
      <trkpt lat="48.28328" lon="-4.30866">
        <ele>94.83</ele>
        <time>2013-04-16T11:37:03Z</time>
      </trkpt>
      <trkpt lat="48.28324" lon="-4.3088">
        <ele>95.31</ele>
        <time>2013-04-16T11:37:11Z</time>
      </trkpt>
      <trkpt lat="48.28319" lon="-4.30894">
        <ele>94.83</ele>
        <time>2013-04-16T11:37:19Z</time>
      </trkpt>
      <trkpt lat="48.28314" lon="-4.30907">
        <ele>94.83</ele>
        <time>2013-04-16T11:37:27Z</time>
      </trkpt>
      <trkpt lat="48.2831" lon="-4.30922">
        <ele>94.83</ele>
        <time>2013-04-16T11:37:36Z</time>
      </trkpt>
      <trkpt lat="48.28307" lon="-4.30936">
        <ele>94.35</ele>
        <time>2013-04-16T11:37:45Z</time>
      </trkpt>
      <trkpt lat="48.28302" lon="-4.30948">
        <ele>93.87</ele>
        <time>2013-04-16T11:37:53Z</time>
      </trkpt>
      <trkpt lat="48.28295" lon="-4.30962">
        <ele>94.83</ele>
        <time>2013-04-16T11:38:02Z</time>
      </trkpt>
      <trkpt lat="48.28289" lon="-4.30975">
        <ele>94.83</ele>
        <time>2013-04-16T11:38:11Z</time>
      </trkpt>
      <trkpt lat="48.28284" lon="-4.30989">
        <ele>94.83</ele>
        <time>2013-04-16T11:38:30Z</time>
      </trkpt>
      <trkpt lat="48.28278" lon="-4.31005">
        <ele>94.83</ele>
        <time>2013-04-16T11:38:39Z</time>
      </trkpt>
      <trkpt lat="48.28274" lon="-4.31022">
        <ele>94.35</ele>
        <time>2013-04-16T11:38:49Z</time>
      </trkpt>
      <trkpt lat="48.28269" lon="-4.31038">
        <ele>94.83</ele>
        <time>2013-04-16T11:38:58Z</time>
      </trkpt>
      <trkpt lat="48.28264" lon="-4.31051">
        <ele>93.39</ele>
        <time>2013-04-16T11:39:07Z</time>
      </trkpt>
      <trkpt lat="48.28258" lon="-4.31066">
        <ele>93.87</ele>
        <time>2013-04-16T11:39:17Z</time>
      </trkpt>
      <trkpt lat="48.28253" lon="-4.31079">
        <ele>94.35</ele>
        <time>2013-04-16T11:39:25Z</time>
      </trkpt>
      <trkpt lat="48.28248" lon="-4.31091">
        <ele>95.31</ele>
        <time>2013-04-16T11:39:34Z</time>
      </trkpt>
      <trkpt lat="48.28244" lon="-4.31106">
        <ele>95.31</ele>
        <time>2013-04-16T11:39:43Z</time>
      </trkpt>
      <trkpt lat="48.28239" lon="-4.31121">
        <ele>95.79</ele>
        <time>2013-04-16T11:39:54Z</time>
      </trkpt>
      <trkpt lat="48.28234" lon="-4.31136">
        <ele>95.79</ele>
        <time>2013-04-16T11:40:06Z</time>
      </trkpt>
      <trkpt lat="48.2823" lon="-4.3115">
        <ele>95.31</ele>
        <time>2013-04-16T11:41:22Z</time>
      </trkpt>
      <trkpt lat="48.28226" lon="-4.31166">
        <ele>95.31</ele>
        <time>2013-04-16T11:42:52Z</time>
      </trkpt>
      <trkpt lat="48.28221" lon="-4.3118">
        <ele>94.83</ele>
        <time>2013-04-16T11:43:01Z</time>
      </trkpt>
      <trkpt lat="48.28217" lon="-4.31195">
        <ele>95.79</ele>
        <time>2013-04-16T11:43:11Z</time>
      </trkpt>
      <trkpt lat="48.28214" lon="-4.31209">
        <ele>95.79</ele>
        <time>2013-04-16T11:43:21Z</time>
      </trkpt>
      <trkpt lat="48.2821" lon="-4.31224">
        <ele>96.27</ele>
        <time>2013-04-16T11:43:30Z</time>
      </trkpt>
      <trkpt lat="48.28207" lon="-4.31239">
        <ele>96.27</ele>
        <time>2013-04-16T11:43:40Z</time>
      </trkpt>
      <trkpt lat="48.28202" lon="-4.31254">
        <ele>95.79</ele>
        <time>2013-04-16T11:43:51Z</time>
      </trkpt>
      <trkpt lat="48.28197" lon="-4.31269">
        <ele>96.75</ele>
        <time>2013-04-16T11:44:00Z</time>
      </trkpt>
      <trkpt lat="48.28192" lon="-4.31284">
        <ele>95.79</ele>
        <time>2013-04-16T11:44:09Z</time>
      </trkpt>
      <trkpt lat="48.28188" lon="-4.31298">
        <ele>96.27</ele>
        <time>2013-04-16T11:44:18Z</time>
      </trkpt>
      <trkpt lat="48.28183" lon="-4.31311">
        <ele>96.27</ele>
        <time>2013-04-16T11:44:26Z</time>
      </trkpt>
      <trkpt lat="48.28178" lon="-4.3132">
        <ele>96.27</ele>
        <time>2013-04-16T11:44:36Z</time>
      </trkpt>
      <trkpt lat="48.28168" lon="-4.31317">
        <ele>97.23</ele>
        <time>2013-04-16T11:44:45Z</time>
      </trkpt>
      <trkpt lat="48.28159" lon="-4.3131">
        <ele>97.71</ele>
        <time>2013-04-16T11:44:53Z</time>
      </trkpt>
      <trkpt lat="48.2815" lon="-4.31305">
        <ele>98.19</ele>
        <time>2013-04-16T11:45:01Z</time>
      </trkpt>
      <trkpt lat="48.28141" lon="-4.313">
        <ele>98.67</ele>
        <time>2013-04-16T11:45:10Z</time>
      </trkpt>
      <trkpt lat="48.28132" lon="-4.31293">
        <ele>100.11</ele>
        <time>2013-04-16T11:45:19Z</time>
      </trkpt>
      <trkpt lat="48.28123" lon="-4.31285">
        <ele>100.6</ele>
        <time>2013-04-16T11:45:27Z</time>
      </trkpt>
      <trkpt lat="48.28114" lon="-4.31277">
        <ele>100.6</ele>
        <time>2013-04-16T11:45:35Z</time>
      </trkpt>
      <trkpt lat="48.28105" lon="-4.31269">
        <ele>100.11</ele>
        <time>2013-04-16T11:45:43Z</time>
      </trkpt>
      <trkpt lat="48.28097" lon="-4.31261">
        <ele>101.56</ele>
        <time>2013-04-16T11:45:51Z</time>
      </trkpt>
      <trkpt lat="48.28088" lon="-4.31252">
        <ele>101.56</ele>
        <time>2013-04-16T11:46:03Z</time>
      </trkpt>
      <trkpt lat="48.2808" lon="-4.31243">
        <ele>102.04</ele>
        <time>2013-04-16T11:46:11Z</time>
      </trkpt>
      <trkpt lat="48.28072" lon="-4.31233">
        <ele>102.04</ele>
        <time>2013-04-16T11:46:20Z</time>
      </trkpt>
      <trkpt lat="48.28063" lon="-4.31227">
        <ele>101.08</ele>
        <time>2013-04-16T11:46:29Z</time>
      </trkpt>
      <trkpt lat="48.28057" lon="-4.31237">
        <ele>102.52</ele>
        <time>2013-04-16T11:46:39Z</time>
      </trkpt>
      <trkpt lat="48.28053" lon="-4.31253">
        <ele>102.04</ele>
        <time>2013-04-16T11:46:47Z</time>
      </trkpt>
      <trkpt lat="48.28048" lon="-4.31265">
        <ele>102.04</ele>
        <time>2013-04-16T11:46:59Z</time>
      </trkpt>
      <trkpt lat="48.28042" lon="-4.3128">
        <ele>102.04</ele>
        <time>2013-04-16T11:47:05Z</time>
      </trkpt>
      <trkpt lat="48.28037" lon="-4.31294">
        <ele>102.52</ele>
        <time>2013-04-16T11:47:12Z</time>
      </trkpt>
      <trkpt lat="48.28031" lon="-4.31306">
        <ele>102.04</ele>
        <time>2013-04-16T11:47:19Z</time>
      </trkpt>
      <trkpt lat="48.28026" lon="-4.31317">
        <ele>102.52</ele>
        <time>2013-04-16T11:47:26Z</time>
      </trkpt>
      <trkpt lat="48.28022" lon="-4.31328">
        <ele>102.52</ele>
        <time>2013-04-16T11:47:33Z</time>
      </trkpt>
      <trkpt lat="48.28017" lon="-4.31341">
        <ele>102.04</ele>
        <time>2013-04-16T11:47:40Z</time>
      </trkpt>
      <trkpt lat="48.28011" lon="-4.31353">
        <ele>103</ele>
        <time>2013-04-16T11:47:47Z</time>
      </trkpt>
      <trkpt lat="48.28007" lon="-4.31366">
        <ele>103.48</ele>
        <time>2013-04-16T11:47:54Z</time>
      </trkpt>
      <trkpt lat="48.28001" lon="-4.31377">
        <ele>103.48</ele>
        <time>2013-04-16T11:48:04Z</time>
      </trkpt>
      <trkpt lat="48.27992" lon="-4.31373">
        <ele>102.52</ele>
        <time>2013-04-16T11:48:13Z</time>
      </trkpt>
      <trkpt lat="48.27983" lon="-4.31365">
        <ele>103.48</ele>
        <time>2013-04-16T11:48:30Z</time>
      </trkpt>
      <trkpt lat="48.27973" lon="-4.31359">
        <ele>103.48</ele>
        <time>2013-04-16T11:48:38Z</time>
      </trkpt>
      <trkpt lat="48.27964" lon="-4.31354">
        <ele>103.96</ele>
        <time>2013-04-16T11:48:46Z</time>
      </trkpt>
      <trkpt lat="48.27955" lon="-4.31348">
        <ele>103.96</ele>
        <time>2013-04-16T11:48:54Z</time>
      </trkpt>
      <trkpt lat="48.27945" lon="-4.31337">
        <ele>103.48</ele>
        <time>2013-04-16T11:49:03Z</time>
      </trkpt>
      <trkpt lat="48.27934" lon="-4.31331">
        <ele>103</ele>
        <time>2013-04-16T11:49:12Z</time>
      </trkpt>
      <trkpt lat="48.27922" lon="-4.31328">
        <ele>102.52</ele>
        <time>2013-04-16T11:49:23Z</time>
      </trkpt>
      <trkpt lat="48.27912" lon="-4.31322">
        <ele>102.04</ele>
        <time>2013-04-16T11:49:35Z</time>
      </trkpt>
      <trkpt lat="48.27901" lon="-4.31314">
        <ele>102.52</ele>
        <time>2013-04-16T11:49:45Z</time>
      </trkpt>
      <trkpt lat="48.27885" lon="-4.31304">
        <ele>102.04</ele>
        <time>2013-04-16T11:49:55Z</time>
      </trkpt>
      <trkpt lat="48.2787" lon="-4.31293">
        <ele>101.56</ele>
        <time>2013-04-16T11:50:05Z</time>
      </trkpt>
      <trkpt lat="48.27858" lon="-4.31287">
        <ele>101.56</ele>
        <time>2013-04-16T11:50:14Z</time>
      </trkpt>
      <trkpt lat="48.27848" lon="-4.31281">
        <ele>101.56</ele>
        <time>2013-04-16T11:50:22Z</time>
      </trkpt>
      <trkpt lat="48.27839" lon="-4.31273">
        <ele>101.08</ele>
        <time>2013-04-16T11:50:30Z</time>
      </trkpt>
      <trkpt lat="48.27829" lon="-4.31267">
        <ele>100.6</ele>
        <time>2013-04-16T11:50:37Z</time>
      </trkpt>
      <trkpt lat="48.27818" lon="-4.31262">
        <ele>100.11</ele>
        <time>2013-04-16T11:50:47Z</time>
      </trkpt>
      <trkpt lat="48.27807" lon="-4.31258">
        <ele>99.15</ele>
        <time>2013-04-16T11:50:57Z</time>
      </trkpt>
      <trkpt lat="48.27796" lon="-4.31252">
        <ele>99.15</ele>
        <time>2013-04-16T11:51:05Z</time>
      </trkpt>
      <trkpt lat="48.27783" lon="-4.31247">
        <ele>99.63</ele>
        <time>2013-04-16T11:51:14Z</time>
      </trkpt>
      <trkpt lat="48.27772" lon="-4.31241">
        <ele>98.67</ele>
        <time>2013-04-16T11:51:22Z</time>
      </trkpt>
      <trkpt lat="48.27762" lon="-4.31235">
        <ele>98.19</ele>
        <time>2013-04-16T11:51:42Z</time>
      </trkpt>
      <trkpt lat="48.27751" lon="-4.3123">
        <ele>98.19</ele>
        <time>2013-04-16T11:51:50Z</time>
      </trkpt>
      <trkpt lat="48.2774" lon="-4.31224">
        <ele>96.75</ele>
        <time>2013-04-16T11:51:58Z</time>
      </trkpt>
      <trkpt lat="48.27729" lon="-4.31219">
        <ele>95.79</ele>
        <time>2013-04-16T11:52:07Z</time>
      </trkpt>
      <trkpt lat="48.27718" lon="-4.31213">
        <ele>96.27</ele>
        <time>2013-04-16T11:52:15Z</time>
      </trkpt>
      <trkpt lat="48.27707" lon="-4.31208">
        <ele>96.27</ele>
        <time>2013-04-16T11:52:23Z</time>
      </trkpt>
      <trkpt lat="48.27696" lon="-4.31201">
        <ele>94.83</ele>
        <time>2013-04-16T11:52:32Z</time>
      </trkpt>
      <trkpt lat="48.27685" lon="-4.31194">
        <ele>94.35</ele>
        <time>2013-04-16T11:52:42Z</time>
      </trkpt>
      <trkpt lat="48.27675" lon="-4.31186">
        <ele>93.39</ele>
        <time>2013-04-16T11:52:50Z</time>
      </trkpt>
      <trkpt lat="48.27667" lon="-4.31179">
        <ele>93.39</ele>
        <time>2013-04-16T11:52:57Z</time>
      </trkpt>
      <trkpt lat="48.27659" lon="-4.3117">
        <ele>92.9</ele>
        <time>2013-04-16T11:53:04Z</time>
      </trkpt>
      <trkpt lat="48.2765" lon="-4.31161">
        <ele>92.9</ele>
        <time>2013-04-16T11:53:11Z</time>
      </trkpt>
      <trkpt lat="48.27642" lon="-4.31152">
        <ele>92.42</ele>
        <time>2013-04-16T11:53:19Z</time>
      </trkpt>
      <trkpt lat="48.27634" lon="-4.31141">
        <ele>90.98</ele>
        <time>2013-04-16T11:53:27Z</time>
      </trkpt>
      <trkpt lat="48.27626" lon="-4.31133">
        <ele>90.98</ele>
        <time>2013-04-16T11:53:35Z</time>
      </trkpt>
      <trkpt lat="48.27617" lon="-4.31124">
        <ele>90.5</ele>
        <time>2013-04-16T11:53:43Z</time>
      </trkpt>
      <trkpt lat="48.27608" lon="-4.31114">
        <ele>89.06</ele>
        <time>2013-04-16T11:53:51Z</time>
      </trkpt>
      <trkpt lat="48.27602" lon="-4.31102">
        <ele>89.54</ele>
        <time>2013-04-16T11:53:59Z</time>
      </trkpt>
      <trkpt lat="48.276" lon="-4.31087">
        <ele>89.06</ele>
        <time>2013-04-16T11:54:06Z</time>
      </trkpt>
      <trkpt lat="48.27601" lon="-4.31073">
        <ele>88.1</ele>
        <time>2013-04-16T11:54:15Z</time>
      </trkpt>
      <trkpt lat="48.27605" lon="-4.31059">
        <ele>88.1</ele>
        <time>2013-04-16T11:54:33Z</time>
      </trkpt>
      <trkpt lat="48.27608" lon="-4.31043">
        <ele>87.14</ele>
        <time>2013-04-16T11:54:42Z</time>
      </trkpt>
      <trkpt lat="48.27611" lon="-4.31027">
        <ele>87.14</ele>
        <time>2013-04-16T11:54:51Z</time>
      </trkpt>
      <trkpt lat="48.27613" lon="-4.31011">
        <ele>86.66</ele>
        <time>2013-04-16T11:54:59Z</time>
      </trkpt>
      <trkpt lat="48.27614" lon="-4.30996">
        <ele>86.66</ele>
        <time>2013-04-16T11:55:06Z</time>
      </trkpt>
      <trkpt lat="48.27617" lon="-4.3098">
        <ele>86.66</ele>
        <time>2013-04-16T11:55:14Z</time>
      </trkpt>
      <trkpt lat="48.2762" lon="-4.30965">
        <ele>86.66</ele>
        <time>2013-04-16T11:55:22Z</time>
      </trkpt>
      <trkpt lat="48.27621" lon="-4.30947">
        <ele>86.18</ele>
        <time>2013-04-16T11:55:30Z</time>
      </trkpt>
      <trkpt lat="48.27624" lon="-4.30931">
        <ele>86.66</ele>
        <time>2013-04-16T11:55:38Z</time>
      </trkpt>
      <trkpt lat="48.27627" lon="-4.30914">
        <ele>86.66</ele>
        <time>2013-04-16T11:55:47Z</time>
      </trkpt>
      <trkpt lat="48.27631" lon="-4.30899">
        <ele>86.66</ele>
        <time>2013-04-16T11:55:55Z</time>
      </trkpt>
      <trkpt lat="48.27632" lon="-4.30884">
        <ele>87.14</ele>
        <time>2013-04-16T11:56:04Z</time>
      </trkpt>
      <trkpt lat="48.27634" lon="-4.30867">
        <ele>86.18</ele>
        <time>2013-04-16T11:56:13Z</time>
      </trkpt>
      <trkpt lat="48.27635" lon="-4.3085">
        <ele>86.66</ele>
        <time>2013-04-16T11:56:22Z</time>
      </trkpt>
      <trkpt lat="48.27633" lon="-4.30832">
        <ele>86.66</ele>
        <time>2013-04-16T11:56:31Z</time>
      </trkpt>
      <trkpt lat="48.27629" lon="-4.30815">
        <ele>86.18</ele>
        <time>2013-04-16T11:56:39Z</time>
      </trkpt>
      <trkpt lat="48.27626" lon="-4.308">
        <ele>86.66</ele>
        <time>2013-04-16T11:56:46Z</time>
      </trkpt>
      <trkpt lat="48.2762" lon="-4.30787">
        <ele>85.69</ele>
        <time>2013-04-16T11:56:54Z</time>
      </trkpt>
      <trkpt lat="48.27614" lon="-4.30776">
        <ele>85.21</ele>
        <time>2013-04-16T11:57:13Z</time>
      </trkpt>
      <trkpt lat="48.27608" lon="-4.3076">
        <ele>85.21</ele>
        <time>2013-04-16T11:57:21Z</time>
      </trkpt>
      <trkpt lat="48.27603" lon="-4.30747">
        <ele>84.73</ele>
        <time>2013-04-16T11:57:28Z</time>
      </trkpt>
      <trkpt lat="48.27598" lon="-4.30733">
        <ele>84.25</ele>
        <time>2013-04-16T11:57:37Z</time>
      </trkpt>
      <trkpt lat="48.27593" lon="-4.30722">
        <ele>83.29</ele>
        <time>2013-04-16T11:57:50Z</time>
      </trkpt>
      <trkpt lat="48.27588" lon="-4.3071">
        <ele>83.29</ele>
        <time>2013-04-16T11:57:57Z</time>
      </trkpt>
      <trkpt lat="48.27582" lon="-4.30698">
        <ele>83.29</ele>
        <time>2013-04-16T11:58:05Z</time>
      </trkpt>
      <trkpt lat="48.27577" lon="-4.30683">
        <ele>82.33</ele>
        <time>2013-04-16T11:58:13Z</time>
      </trkpt>
      <trkpt lat="48.27572" lon="-4.30669">
        <ele>81.85</ele>
        <time>2013-04-16T11:58:21Z</time>
      </trkpt>
      <trkpt lat="48.27569" lon="-4.30655">
        <ele>82.33</ele>
        <time>2013-04-16T11:58:29Z</time>
      </trkpt>
      <trkpt lat="48.27567" lon="-4.30641">
        <ele>81.85</ele>
        <time>2013-04-16T11:58:36Z</time>
      </trkpt>
      <trkpt lat="48.27565" lon="-4.30627">
        <ele>82.33</ele>
        <time>2013-04-16T11:58:44Z</time>
      </trkpt>
      <trkpt lat="48.27564" lon="-4.30611">
        <ele>82.33</ele>
        <time>2013-04-16T11:58:52Z</time>
      </trkpt>
      <trkpt lat="48.27564" lon="-4.30596">
        <ele>82.33</ele>
        <time>2013-04-16T11:59:00Z</time>
      </trkpt>
      <trkpt lat="48.27565" lon="-4.3058">
        <ele>82.33</ele>
        <time>2013-04-16T11:59:08Z</time>
      </trkpt>
      <trkpt lat="48.27563" lon="-4.30566">
        <ele>82.81</ele>
        <time>2013-04-16T11:59:16Z</time>
      </trkpt>
      <trkpt lat="48.27563" lon="-4.30549">
        <ele>81.85</ele>
        <time>2013-04-16T11:59:25Z</time>
      </trkpt>
      <trkpt lat="48.27566" lon="-4.30532">
        <ele>82.81</ele>
        <time>2013-04-16T11:59:35Z</time>
      </trkpt>
      <trkpt lat="48.27569" lon="-4.30514">
        <ele>82.81</ele>
        <time>2013-04-16T11:59:43Z</time>
      </trkpt>
      <trkpt lat="48.2757" lon="-4.30499">
        <ele>81.85</ele>
        <time>2013-04-16T11:59:52Z</time>
      </trkpt>
      <trkpt lat="48.27571" lon="-4.30477">
        <ele>81.85</ele>
        <time>2013-04-16T12:01:07Z</time>
      </trkpt>
      <trkpt lat="48.27576" lon="-4.30456">
        <ele>81.85</ele>
        <time>2013-04-16T12:01:19Z</time>
      </trkpt>
      <trkpt lat="48.27578" lon="-4.30439">
        <ele>82.33</ele>
        <time>2013-04-16T12:01:27Z</time>
      </trkpt>
      <trkpt lat="48.27583" lon="-4.30421">
        <ele>80.89</ele>
        <time>2013-04-16T12:01:35Z</time>
      </trkpt>
      <trkpt lat="48.2759" lon="-4.3041">
        <ele>81.85</ele>
        <time>2013-04-16T12:01:44Z</time>
      </trkpt>
      <trkpt lat="48.27597" lon="-4.30398">
        <ele>82.81</ele>
        <time>2013-04-16T12:01:52Z</time>
      </trkpt>
      <trkpt lat="48.27603" lon="-4.30384">
        <ele>84.25</ele>
        <time>2013-04-16T12:02:00Z</time>
      </trkpt>
      <trkpt lat="48.27607" lon="-4.30371">
        <ele>83.29</ele>
        <time>2013-04-16T12:02:07Z</time>
      </trkpt>
      <trkpt lat="48.2761" lon="-4.30356">
        <ele>83.29</ele>
        <time>2013-04-16T12:02:15Z</time>
      </trkpt>
      <trkpt lat="48.27613" lon="-4.30342">
        <ele>84.25</ele>
        <time>2013-04-16T12:02:22Z</time>
      </trkpt>
      <trkpt lat="48.27619" lon="-4.30329">
        <ele>83.29</ele>
        <time>2013-04-16T12:02:30Z</time>
      </trkpt>
      <trkpt lat="48.27626" lon="-4.30318">
        <ele>84.73</ele>
        <time>2013-04-16T12:02:39Z</time>
      </trkpt>
      <trkpt lat="48.27635" lon="-4.30305">
        <ele>84.73</ele>
        <time>2013-04-16T12:02:49Z</time>
      </trkpt>
      <trkpt lat="48.27642" lon="-4.30298">
        <ele>85.69</ele>
        <time>2013-04-16T12:03:18Z</time>
      </trkpt>
      <trkpt lat="48.27647" lon="-4.30287">
        <ele>84.73</ele>
        <time>2013-04-16T12:03:30Z</time>
      </trkpt>
      <trkpt lat="48.27652" lon="-4.30273">
        <ele>86.18</ele>
        <time>2013-04-16T12:03:38Z</time>
      </trkpt>
      <trkpt lat="48.27657" lon="-4.30259">
        <ele>84.73</ele>
        <time>2013-04-16T12:03:46Z</time>
      </trkpt>
      <trkpt lat="48.27662" lon="-4.30246">
        <ele>84.73</ele>
        <time>2013-04-16T12:03:58Z</time>
      </trkpt>
      <trkpt lat="48.27669" lon="-4.30232">
        <ele>84.25</ele>
        <time>2013-04-16T12:04:07Z</time>
      </trkpt>
      <trkpt lat="48.27675" lon="-4.30218">
        <ele>85.21</ele>
        <time>2013-04-16T12:04:15Z</time>
      </trkpt>
      <trkpt lat="48.27681" lon="-4.30202">
        <ele>85.21</ele>
        <time>2013-04-16T12:04:22Z</time>
      </trkpt>
      <trkpt lat="48.27687" lon="-4.30187">
        <ele>84.25</ele>
        <time>2013-04-16T12:04:30Z</time>
      </trkpt>
      <trkpt lat="48.27694" lon="-4.30177">
        <ele>84.73</ele>
        <time>2013-04-16T12:04:38Z</time>
      </trkpt>
      <trkpt lat="48.27705" lon="-4.30173">
        <ele>84.73</ele>
        <time>2013-04-16T12:04:45Z</time>
      </trkpt>
      <trkpt lat="48.27715" lon="-4.30172">
        <ele>84.73</ele>
        <time>2013-04-16T12:04:54Z</time>
      </trkpt>
      <trkpt lat="48.27725" lon="-4.30172">
        <ele>84.73</ele>
        <time>2013-04-16T12:05:02Z</time>
      </trkpt>
      <trkpt lat="48.27737" lon="-4.30173">
        <ele>84.25</ele>
        <time>2013-04-16T12:05:11Z</time>
      </trkpt>
      <trkpt lat="48.27748" lon="-4.30172">
        <ele>84.25</ele>
        <time>2013-04-16T12:05:20Z</time>
      </trkpt>
      <trkpt lat="48.2776" lon="-4.30166">
        <ele>83.29</ele>
        <time>2013-04-16T12:05:30Z</time>
      </trkpt>
      <trkpt lat="48.27771" lon="-4.30162">
        <ele>81.85</ele>
        <time>2013-04-16T12:05:38Z</time>
      </trkpt>
      <trkpt lat="48.27781" lon="-4.30156">
        <ele>82.81</ele>
        <time>2013-04-16T12:05:47Z</time>
      </trkpt>
      <trkpt lat="48.27792" lon="-4.30156">
        <ele>81.85</ele>
        <time>2013-04-16T12:05:57Z</time>
      </trkpt>
      <trkpt lat="48.27804" lon="-4.30158">
        <ele>80.41</ele>
        <time>2013-04-16T12:06:10Z</time>
      </trkpt>
      <trkpt lat="48.27818" lon="-4.30162">
        <ele>79.45</ele>
        <time>2013-04-16T12:06:22Z</time>
      </trkpt>
      <trkpt lat="48.27829" lon="-4.30166">
        <ele>78.48</ele>
        <time>2013-04-16T12:06:31Z</time>
      </trkpt>
      <trkpt lat="48.2784" lon="-4.30172">
        <ele>78</ele>
        <time>2013-04-16T12:06:40Z</time>
      </trkpt>
      <trkpt lat="48.27849" lon="-4.30177">
        <ele>77.04</ele>
        <time>2013-04-16T12:06:49Z</time>
      </trkpt>
      <trkpt lat="48.2786" lon="-4.3018">
        <ele>75.12</ele>
        <time>2013-04-16T12:06:58Z</time>
      </trkpt>
      <trkpt lat="48.27873" lon="-4.30183">
        <ele>74.16</ele>
        <time>2013-04-16T12:07:08Z</time>
      </trkpt>
      <trkpt lat="48.27885" lon="-4.30178">
        <ele>75.12</ele>
        <time>2013-04-16T12:07:17Z</time>
      </trkpt>
      <trkpt lat="48.27894" lon="-4.30171">
        <ele>73.2</ele>
        <time>2013-04-16T12:07:26Z</time>
      </trkpt>
      <trkpt lat="48.27906" lon="-4.30165">
        <ele>73.2</ele>
        <time>2013-04-16T12:07:34Z</time>
      </trkpt>
      <trkpt lat="48.27916" lon="-4.30155">
        <ele>71.76</ele>
        <time>2013-04-16T12:07:42Z</time>
      </trkpt>
      <trkpt lat="48.27925" lon="-4.30145">
        <ele>70.79</ele>
        <time>2013-04-16T12:07:54Z</time>
      </trkpt>
      <trkpt lat="48.27935" lon="-4.30137">
        <ele>70.31</ele>
        <time>2013-04-16T12:08:03Z</time>
      </trkpt>
      <trkpt lat="48.27945" lon="-4.30127">
        <ele>69.35</ele>
        <time>2013-04-16T12:08:11Z</time>
      </trkpt>
      <trkpt lat="48.27955" lon="-4.30118">
        <ele>68.87</ele>
        <time>2013-04-16T12:08:19Z</time>
      </trkpt>
      <trkpt lat="48.27965" lon="-4.3011">
        <ele>67.43</ele>
        <time>2013-04-16T12:08:27Z</time>
      </trkpt>
      <trkpt lat="48.27973" lon="-4.301">
        <ele>66.95</ele>
        <time>2013-04-16T12:08:36Z</time>
      </trkpt>
      <trkpt lat="48.27982" lon="-4.30089">
        <ele>69.35</ele>
        <time>2013-04-16T12:08:45Z</time>
      </trkpt>
      <trkpt lat="48.27988" lon="-4.30074">
        <ele>69.83</ele>
        <time>2013-04-16T12:08:57Z</time>
      </trkpt>
      <trkpt lat="48.27996" lon="-4.30059">
        <ele>70.31</ele>
        <time>2013-04-16T12:09:06Z</time>
      </trkpt>
      <trkpt lat="48.28002" lon="-4.30044">
        <ele>71.27</ele>
        <time>2013-04-16T12:09:18Z</time>
      </trkpt>
      <trkpt lat="48.28011" lon="-4.30029">
        <ele>71.76</ele>
        <time>2013-04-16T12:09:32Z</time>
      </trkpt>
      <trkpt lat="48.28022" lon="-4.30014">
        <ele>73.2</ele>
        <time>2013-04-16T12:09:45Z</time>
      </trkpt>
      <trkpt lat="48.28044" lon="-4.29998">
        <ele>75.12</ele>
        <time>2013-04-16T12:10:02Z</time>
      </trkpt>
      <trkpt lat="48.28055" lon="-4.29992">
        <ele>74.16</ele>
        <time>2013-04-16T12:10:11Z</time>
      </trkpt>
      <trkpt lat="48.28071" lon="-4.29982">
        <ele>76.56</ele>
        <time>2013-04-16T12:10:26Z</time>
      </trkpt>
      <trkpt lat="48.28086" lon="-4.2997">
        <ele>77.52</ele>
        <time>2013-04-16T12:10:42Z</time>
      </trkpt>
      <trkpt lat="48.28099" lon="-4.29959">
        <ele>76.56</ele>
        <time>2013-04-16T12:10:54Z</time>
      </trkpt>
      <trkpt lat="48.28109" lon="-4.29953">
        <ele>78.48</ele>
        <time>2013-04-16T12:11:03Z</time>
      </trkpt>
      <trkpt lat="48.28121" lon="-4.29943">
        <ele>78.97</ele>
        <time>2013-04-16T12:11:14Z</time>
      </trkpt>
      <trkpt lat="48.28131" lon="-4.29937">
        <ele>79.93</ele>
        <time>2013-04-16T12:11:29Z</time>
      </trkpt>
      <trkpt lat="48.28139" lon="-4.29931">
        <ele>80.41</ele>
        <time>2013-04-16T12:11:54Z</time>
      </trkpt>
      <trkpt lat="48.28152" lon="-4.29921">
        <ele>81.85</ele>
        <time>2013-04-16T12:12:05Z</time>
      </trkpt>
      <trkpt lat="48.28164" lon="-4.29914">
        <ele>82.81</ele>
        <time>2013-04-16T12:12:15Z</time>
      </trkpt>
      <trkpt lat="48.28176" lon="-4.29906">
        <ele>82.81</ele>
        <time>2013-04-16T12:12:25Z</time>
      </trkpt>
      <trkpt lat="48.28186" lon="-4.29898">
        <ele>84.25</ele>
        <time>2013-04-16T12:12:36Z</time>
      </trkpt>
      <trkpt lat="48.28197" lon="-4.29887">
        <ele>85.21</ele>
        <time>2013-04-16T12:12:48Z</time>
      </trkpt>
      <trkpt lat="48.28206" lon="-4.29877">
        <ele>86.18</ele>
        <time>2013-04-16T12:13:00Z</time>
      </trkpt>
      <trkpt lat="48.28214" lon="-4.29869">
        <ele>86.18</ele>
        <time>2013-04-16T12:13:09Z</time>
      </trkpt>
      <trkpt lat="48.28223" lon="-4.2986">
        <ele>87.62</ele>
        <time>2013-04-16T12:13:19Z</time>
      </trkpt>
      <trkpt lat="48.28231" lon="-4.2985">
        <ele>87.62</ele>
        <time>2013-04-16T12:13:28Z</time>
      </trkpt>
      <trkpt lat="48.2824" lon="-4.29839">
        <ele>88.1</ele>
        <time>2013-04-16T12:13:38Z</time>
      </trkpt>
      <trkpt lat="48.2825" lon="-4.29828">
        <ele>88.1</ele>
        <time>2013-04-16T12:13:48Z</time>
      </trkpt>
      <trkpt lat="48.28259" lon="-4.29821">
        <ele>88.1</ele>
        <time>2013-04-16T12:13:57Z</time>
      </trkpt>
      <trkpt lat="48.28269" lon="-4.29809">
        <ele>90.98</ele>
        <time>2013-04-16T12:14:11Z</time>
      </trkpt>
      <trkpt lat="48.28278" lon="-4.29798">
        <ele>92.42</ele>
        <time>2013-04-16T12:14:21Z</time>
      </trkpt>
      <trkpt lat="48.28288" lon="-4.29789">
        <ele>92.9</ele>
        <time>2013-04-16T12:14:31Z</time>
      </trkpt>
      <trkpt lat="48.28298" lon="-4.29781">
        <ele>93.39</ele>
        <time>2013-04-16T12:14:40Z</time>
      </trkpt>
      <trkpt lat="48.28307" lon="-4.29773">
        <ele>94.83</ele>
        <time>2013-04-16T12:14:49Z</time>
      </trkpt>
      <trkpt lat="48.28316" lon="-4.29765">
        <ele>95.31</ele>
        <time>2013-04-16T12:14:59Z</time>
      </trkpt>
      <trkpt lat="48.28324" lon="-4.29757">
        <ele>96.27</ele>
        <time>2013-04-16T12:16:02Z</time>
      </trkpt>
      <trkpt lat="48.2833" lon="-4.29752">
        <ele>96.27</ele>
        <time>2013-04-16T12:18:31Z</time>
      </trkpt>
      <trkpt lat="48.28339" lon="-4.2974">
        <ele>97.23</ele>
        <time>2013-04-16T12:18:40Z</time>
      </trkpt>
      <trkpt lat="48.28346" lon="-4.29729">
        <ele>97.23</ele>
        <time>2013-04-16T12:18:49Z</time>
      </trkpt>
      <trkpt lat="48.28353" lon="-4.29719">
        <ele>97.23</ele>
        <time>2013-04-16T12:18:57Z</time>
      </trkpt>
      <trkpt lat="48.2836" lon="-4.29708">
        <ele>98.67</ele>
        <time>2013-04-16T12:19:05Z</time>
      </trkpt>
      <trkpt lat="48.28367" lon="-4.29697">
        <ele>99.15</ele>
        <time>2013-04-16T12:19:14Z</time>
      </trkpt>
      <trkpt lat="48.28373" lon="-4.29684">
        <ele>99.63</ele>
        <time>2013-04-16T12:19:22Z</time>
      </trkpt>
      <trkpt lat="48.2838" lon="-4.29674">
        <ele>99.15</ele>
        <time>2013-04-16T12:19:30Z</time>
      </trkpt>
      <trkpt lat="48.28388" lon="-4.29663">
        <ele>99.63</ele>
        <time>2013-04-16T12:19:39Z</time>
      </trkpt>
      <trkpt lat="48.28395" lon="-4.29653">
        <ele>100.11</ele>
        <time>2013-04-16T12:19:47Z</time>
      </trkpt>
      <trkpt lat="48.28402" lon="-4.29643">
        <ele>101.08</ele>
        <time>2013-04-16T12:19:55Z</time>
      </trkpt>
      <trkpt lat="48.28409" lon="-4.29631">
        <ele>100.11</ele>
        <time>2013-04-16T12:20:03Z</time>
      </trkpt>
      <trkpt lat="48.28417" lon="-4.29623">
        <ele>100.6</ele>
        <time>2013-04-16T12:20:11Z</time>
      </trkpt>
      <trkpt lat="48.28424" lon="-4.29611">
        <ele>100.6</ele>
        <time>2013-04-16T12:20:19Z</time>
      </trkpt>
      <trkpt lat="48.28431" lon="-4.296">
        <ele>101.08</ele>
        <time>2013-04-16T12:20:27Z</time>
      </trkpt>
      <trkpt lat="48.28437" lon="-4.29589">
        <ele>100.6</ele>
        <time>2013-04-16T12:20:35Z</time>
      </trkpt>
      <trkpt lat="48.28444" lon="-4.29579">
        <ele>100.6</ele>
        <time>2013-04-16T12:20:43Z</time>
      </trkpt>
      <trkpt lat="48.2845" lon="-4.29567">
        <ele>102.04</ele>
        <time>2013-04-16T12:20:51Z</time>
      </trkpt>
      <trkpt lat="48.28458" lon="-4.29556">
        <ele>102.04</ele>
        <time>2013-04-16T12:20:59Z</time>
      </trkpt>
      <trkpt lat="48.28465" lon="-4.29546">
        <ele>102.04</ele>
        <time>2013-04-16T12:21:11Z</time>
      </trkpt>
      <trkpt lat="48.28471" lon="-4.29534">
        <ele>102.04</ele>
        <time>2013-04-16T12:21:19Z</time>
      </trkpt>
      <trkpt lat="48.28477" lon="-4.29522">
        <ele>102.52</ele>
        <time>2013-04-16T12:21:28Z</time>
      </trkpt>
      <trkpt lat="48.28484" lon="-4.29511">
        <ele>103</ele>
        <time>2013-04-16T12:21:37Z</time>
      </trkpt>
      <trkpt lat="48.28492" lon="-4.295">
        <ele>103.96</ele>
        <time>2013-04-16T12:21:46Z</time>
      </trkpt>
      <trkpt lat="48.28499" lon="-4.29488">
        <ele>104.44</ele>
        <time>2013-04-16T12:21:56Z</time>
      </trkpt>
      <trkpt lat="48.28507" lon="-4.29476">
        <ele>105.88</ele>
        <time>2013-04-16T12:22:07Z</time>
      </trkpt>
      <trkpt lat="48.2852" lon="-4.29466">
        <ele>104.92</ele>
        <time>2013-04-16T12:22:34Z</time>
      </trkpt>
      <trkpt lat="48.28531" lon="-4.29451">
        <ele>105.4</ele>
        <time>2013-04-16T12:22:44Z</time>
      </trkpt>
      <trkpt lat="48.2854" lon="-4.2944">
        <ele>105.88</ele>
        <time>2013-04-16T12:22:53Z</time>
      </trkpt>
      <trkpt lat="48.28548" lon="-4.29429">
        <ele>106.36</ele>
        <time>2013-04-16T12:23:01Z</time>
      </trkpt>
      <trkpt lat="48.28556" lon="-4.29419">
        <ele>106.84</ele>
        <time>2013-04-16T12:23:10Z</time>
      </trkpt>
      <trkpt lat="48.28565" lon="-4.2941">
        <ele>106.84</ele>
        <time>2013-04-16T12:23:18Z</time>
      </trkpt>
      <trkpt lat="48.28573" lon="-4.294">
        <ele>107.32</ele>
        <time>2013-04-16T12:23:27Z</time>
      </trkpt>
      <trkpt lat="48.28581" lon="-4.29391">
        <ele>107.32</ele>
        <time>2013-04-16T12:23:35Z</time>
      </trkpt>
      <trkpt lat="48.2859" lon="-4.29381">
        <ele>108.29</ele>
        <time>2013-04-16T12:23:45Z</time>
      </trkpt>
      <trkpt lat="48.28599" lon="-4.29371">
        <ele>108.29</ele>
        <time>2013-04-16T12:23:54Z</time>
      </trkpt>
      <trkpt lat="48.28608" lon="-4.2936">
        <ele>108.77</ele>
        <time>2013-04-16T12:24:04Z</time>
      </trkpt>
      <trkpt lat="48.28616" lon="-4.29347">
        <ele>108.77</ele>
        <time>2013-04-16T12:24:14Z</time>
      </trkpt>
      <trkpt lat="48.28625" lon="-4.29337">
        <ele>109.73</ele>
        <time>2013-04-16T12:24:23Z</time>
      </trkpt>
      <trkpt lat="48.28633" lon="-4.29327">
        <ele>109.73</ele>
        <time>2013-04-16T12:24:32Z</time>
      </trkpt>
      <trkpt lat="48.28641" lon="-4.29317">
        <ele>109.73</ele>
        <time>2013-04-16T12:24:40Z</time>
      </trkpt>
      <trkpt lat="48.28649" lon="-4.29307">
        <ele>109.25</ele>
        <time>2013-04-16T12:24:48Z</time>
      </trkpt>
      <trkpt lat="48.28658" lon="-4.29294">
        <ele>109.73</ele>
        <time>2013-04-16T12:24:58Z</time>
      </trkpt>
      <trkpt lat="48.28666" lon="-4.29284">
        <ele>109.73</ele>
        <time>2013-04-16T12:25:08Z</time>
      </trkpt>
      <trkpt lat="48.28675" lon="-4.29273">
        <ele>109.73</ele>
        <time>2013-04-16T12:25:24Z</time>
      </trkpt>
      <trkpt lat="48.28684" lon="-4.29261">
        <ele>109.25</ele>
        <time>2013-04-16T12:25:33Z</time>
      </trkpt>
      <trkpt lat="48.28693" lon="-4.29251">
        <ele>110.21</ele>
        <time>2013-04-16T12:25:42Z</time>
      </trkpt>
      <trkpt lat="48.28703" lon="-4.29239">
        <ele>110.21</ele>
        <time>2013-04-16T12:25:50Z</time>
      </trkpt>
      <trkpt lat="48.28713" lon="-4.29226">
        <ele>109.73</ele>
        <time>2013-04-16T12:25:59Z</time>
      </trkpt>
      <trkpt lat="48.28721" lon="-4.29213">
        <ele>109.25</ele>
        <time>2013-04-16T12:26:07Z</time>
      </trkpt>
      <trkpt lat="48.28728" lon="-4.29202">
        <ele>109.73</ele>
        <time>2013-04-16T12:26:16Z</time>
      </trkpt>
      <trkpt lat="48.28737" lon="-4.29188">
        <ele>109.25</ele>
        <time>2013-04-16T12:26:25Z</time>
      </trkpt>
      <trkpt lat="48.28745" lon="-4.29175">
        <ele>109.73</ele>
        <time>2013-04-16T12:26:34Z</time>
      </trkpt>
      <trkpt lat="48.28753" lon="-4.29165">
        <ele>108.29</ele>
        <time>2013-04-16T12:26:42Z</time>
      </trkpt>
      <trkpt lat="48.2876" lon="-4.29157">
        <ele>108.77</ele>
        <time>2013-04-16T12:26:57Z</time>
      </trkpt>
      <trkpt lat="48.28768" lon="-4.29144">
        <ele>108.29</ele>
        <time>2013-04-16T12:27:06Z</time>
      </trkpt>
      <trkpt lat="48.28775" lon="-4.29132">
        <ele>108.77</ele>
        <time>2013-04-16T12:27:14Z</time>
      </trkpt>
      <trkpt lat="48.28782" lon="-4.29122">
        <ele>109.25</ele>
        <time>2013-04-16T12:27:21Z</time>
      </trkpt>
      <trkpt lat="48.28789" lon="-4.2911">
        <ele>108.77</ele>
        <time>2013-04-16T12:27:28Z</time>
      </trkpt>
      <trkpt lat="48.28796" lon="-4.29099">
        <ele>108.77</ele>
        <time>2013-04-16T12:27:35Z</time>
      </trkpt>
      <trkpt lat="48.28802" lon="-4.29088">
        <ele>107.81</ele>
        <time>2013-04-16T12:27:43Z</time>
      </trkpt>
      <trkpt lat="48.28801" lon="-4.2908">
        <ele>108.29</ele>
        <time>2013-04-16T12:28:03Z</time>
      </trkpt>
      <trkpt lat="48.2881" lon="-4.29075">
        <ele>107.81</ele>
        <time>2013-04-16T12:28:11Z</time>
      </trkpt>
      <trkpt lat="48.28818" lon="-4.29066">
        <ele>108.29</ele>
        <time>2013-04-16T12:28:20Z</time>
      </trkpt>
      <trkpt lat="48.28826" lon="-4.29057">
        <ele>107.32</ele>
        <time>2013-04-16T12:28:28Z</time>
      </trkpt>
      <trkpt lat="48.28835" lon="-4.29048">
        <ele>106.84</ele>
        <time>2013-04-16T12:28:36Z</time>
      </trkpt>
      <trkpt lat="48.28845" lon="-4.2904">
        <ele>105.88</ele>
        <time>2013-04-16T12:28:47Z</time>
      </trkpt>
      <trkpt lat="48.28856" lon="-4.29034">
        <ele>105.4</ele>
        <time>2013-04-16T12:28:56Z</time>
      </trkpt>
      <trkpt lat="48.28869" lon="-4.29027">
        <ele>103.48</ele>
        <time>2013-04-16T12:29:07Z</time>
      </trkpt>
      <trkpt lat="48.2888" lon="-4.29021">
        <ele>103.48</ele>
        <time>2013-04-16T12:29:16Z</time>
      </trkpt>
      <trkpt lat="48.28886" lon="-4.29008">
        <ele>103.96</ele>
        <time>2013-04-16T12:29:26Z</time>
      </trkpt>
      <trkpt lat="48.28895" lon="-4.28998">
        <ele>103.96</ele>
        <time>2013-04-16T12:29:39Z</time>
      </trkpt>
      <trkpt lat="48.28901" lon="-4.2899">
        <ele>103</ele>
        <time>2013-04-16T12:30:22Z</time>
      </trkpt>
      <trkpt lat="48.28909" lon="-4.28971">
        <ele>102.52</ele>
        <time>2013-04-16T12:30:32Z</time>
      </trkpt>
      <trkpt lat="48.28913" lon="-4.28954">
        <ele>102.04</ele>
        <time>2013-04-16T12:30:40Z</time>
      </trkpt>
      <trkpt lat="48.2892" lon="-4.2894">
        <ele>102.52</ele>
        <time>2013-04-16T12:30:47Z</time>
      </trkpt>
      <trkpt lat="48.28924" lon="-4.28925">
        <ele>102.04</ele>
        <time>2013-04-16T12:30:53Z</time>
      </trkpt>
      <trkpt lat="48.2893" lon="-4.28911">
        <ele>102.52</ele>
        <time>2013-04-16T12:30:59Z</time>
      </trkpt>
      <trkpt lat="48.28936" lon="-4.28897">
        <ele>102.04</ele>
        <time>2013-04-16T12:31:05Z</time>
      </trkpt>
      <trkpt lat="48.28944" lon="-4.28887">
        <ele>101.56</ele>
        <time>2013-04-16T12:31:11Z</time>
      </trkpt>
      <trkpt lat="48.28952" lon="-4.28878">
        <ele>101.56</ele>
        <time>2013-04-16T12:31:17Z</time>
      </trkpt>
      <trkpt lat="48.28958" lon="-4.28864">
        <ele>101.56</ele>
        <time>2013-04-16T12:31:25Z</time>
      </trkpt>
      <trkpt lat="48.28964" lon="-4.28849">
        <ele>101.08</ele>
        <time>2013-04-16T12:31:33Z</time>
      </trkpt>
      <trkpt lat="48.28971" lon="-4.28835">
        <ele>100.6</ele>
        <time>2013-04-16T12:31:40Z</time>
      </trkpt>
      <trkpt lat="48.2898" lon="-4.28825">
        <ele>101.56</ele>
        <time>2013-04-16T12:31:47Z</time>
      </trkpt>
      <trkpt lat="48.2899" lon="-4.28814">
        <ele>101.56</ele>
        <time>2013-04-16T12:31:54Z</time>
      </trkpt>
      <trkpt lat="48.28997" lon="-4.28799">
        <ele>101.08</ele>
        <time>2013-04-16T12:32:01Z</time>
      </trkpt>
      <trkpt lat="48.29003" lon="-4.28782">
        <ele>101.56</ele>
        <time>2013-04-16T12:32:08Z</time>
      </trkpt>
      <trkpt lat="48.2901" lon="-4.28768">
        <ele>101.08</ele>
        <time>2013-04-16T12:32:15Z</time>
      </trkpt>
      <trkpt lat="48.29014" lon="-4.28752">
        <ele>101.08</ele>
        <time>2013-04-16T12:32:22Z</time>
      </trkpt>
      <trkpt lat="48.2902" lon="-4.28737">
        <ele>101.08</ele>
        <time>2013-04-16T12:32:30Z</time>
      </trkpt>
      <trkpt lat="48.29024" lon="-4.28724">
        <ele>100.6</ele>
        <time>2013-04-16T12:32:39Z</time>
      </trkpt>
      <trkpt lat="48.29031" lon="-4.28711">
        <ele>101.08</ele>
        <time>2013-04-16T12:32:52Z</time>
      </trkpt>
      <trkpt lat="48.29032" lon="-4.28703">
        <ele>100.6</ele>
        <time>2013-04-16T12:33:17Z</time>
      </trkpt>
      <trkpt lat="48.29039" lon="-4.28687">
        <ele>100.6</ele>
        <time>2013-04-16T12:33:25Z</time>
      </trkpt>
      <trkpt lat="48.29043" lon="-4.2867">
        <ele>99.63</ele>
        <time>2013-04-16T12:33:33Z</time>
      </trkpt>
      <trkpt lat="48.29047" lon="-4.28653">
        <ele>99.63</ele>
        <time>2013-04-16T12:33:42Z</time>
      </trkpt>
      <trkpt lat="48.29051" lon="-4.28638">
        <ele>97.23</ele>
        <time>2013-04-16T12:33:50Z</time>
      </trkpt>
      <trkpt lat="48.29054" lon="-4.28621">
        <ele>97.71</ele>
        <time>2013-04-16T12:33:59Z</time>
      </trkpt>
      <trkpt lat="48.29056" lon="-4.28605">
        <ele>95.79</ele>
        <time>2013-04-16T12:34:07Z</time>
      </trkpt>
      <trkpt lat="48.29054" lon="-4.28589">
        <ele>96.27</ele>
        <time>2013-04-16T12:34:15Z</time>
      </trkpt>
      <trkpt lat="48.29053" lon="-4.28571">
        <ele>96.27</ele>
        <time>2013-04-16T12:34:25Z</time>
      </trkpt>
      <trkpt lat="48.29052" lon="-4.28556">
        <ele>95.79</ele>
        <time>2013-04-16T12:34:33Z</time>
      </trkpt>
      <trkpt lat="48.29048" lon="-4.28542">
        <ele>95.31</ele>
        <time>2013-04-16T12:34:40Z</time>
      </trkpt>
      <trkpt lat="48.29044" lon="-4.28526">
        <ele>94.83</ele>
        <time>2013-04-16T12:34:48Z</time>
      </trkpt>
      <trkpt lat="48.29041" lon="-4.28512">
        <ele>94.83</ele>
        <time>2013-04-16T12:34:56Z</time>
      </trkpt>
      <trkpt lat="48.29038" lon="-4.28497">
        <ele>93.39</ele>
        <time>2013-04-16T12:35:04Z</time>
      </trkpt>
      <trkpt lat="48.29036" lon="-4.28481">
        <ele>93.39</ele>
        <time>2013-04-16T12:35:13Z</time>
      </trkpt>
      <trkpt lat="48.29031" lon="-4.28485">
        <ele>92.9</ele>
        <time>2013-04-16T12:35:23Z</time>
      </trkpt>
      <trkpt lat="48.29034" lon="-4.28476">
        <ele>93.39</ele>
        <time>2013-04-16T12:35:58Z</time>
      </trkpt>
      <trkpt lat="48.29037" lon="-4.28464">
        <ele>93.87</ele>
        <time>2013-04-16T12:36:07Z</time>
      </trkpt>
      <trkpt lat="48.29036" lon="-4.28457">
        <ele>93.39</ele>
        <time>2013-04-16T12:36:31Z</time>
      </trkpt>
      <trkpt lat="48.29036" lon="-4.28444">
        <ele>93.39</ele>
        <time>2013-04-16T12:36:59Z</time>
      </trkpt>
      <trkpt lat="48.2904" lon="-4.28431">
        <ele>93.39</ele>
        <time>2013-04-16T12:37:06Z</time>
      </trkpt>
      <trkpt lat="48.29045" lon="-4.28417">
        <ele>92.9</ele>
        <time>2013-04-16T12:37:15Z</time>
      </trkpt>
      <trkpt lat="48.2905" lon="-4.28402">
        <ele>92.9</ele>
        <time>2013-04-16T12:37:22Z</time>
      </trkpt>
      <trkpt lat="48.29053" lon="-4.28388">
        <ele>92.42</ele>
        <time>2013-04-16T12:37:30Z</time>
      </trkpt>
      <trkpt lat="48.29057" lon="-4.28374">
        <ele>92.9</ele>
        <time>2013-04-16T12:37:37Z</time>
      </trkpt>
      <trkpt lat="48.29061" lon="-4.28359">
        <ele>92.9</ele>
        <time>2013-04-16T12:37:45Z</time>
      </trkpt>
      <trkpt lat="48.29062" lon="-4.28344">
        <ele>92.9</ele>
        <time>2013-04-16T12:37:52Z</time>
      </trkpt>
      <trkpt lat="48.29064" lon="-4.28328">
        <ele>93.39</ele>
        <time>2013-04-16T12:38:00Z</time>
      </trkpt>
      <trkpt lat="48.29064" lon="-4.28314">
        <ele>93.39</ele>
        <time>2013-04-16T12:38:08Z</time>
      </trkpt>
      <trkpt lat="48.29064" lon="-4.28299">
        <ele>93.39</ele>
        <time>2013-04-16T12:38:15Z</time>
      </trkpt>
      <trkpt lat="48.29064" lon="-4.28283">
        <ele>92.9</ele>
        <time>2013-04-16T12:38:34Z</time>
      </trkpt>
      <trkpt lat="48.29064" lon="-4.28267">
        <ele>93.39</ele>
        <time>2013-04-16T12:38:43Z</time>
      </trkpt>
      <trkpt lat="48.29065" lon="-4.28252">
        <ele>93.87</ele>
        <time>2013-04-16T12:39:01Z</time>
      </trkpt>
      <trkpt lat="48.29068" lon="-4.28235">
        <ele>92.9</ele>
        <time>2013-04-16T12:39:09Z</time>
      </trkpt>
      <trkpt lat="48.29068" lon="-4.28218">
        <ele>92.9</ele>
        <time>2013-04-16T12:39:17Z</time>
      </trkpt>
      <trkpt lat="48.2907" lon="-4.282">
        <ele>91.94</ele>
        <time>2013-04-16T12:39:27Z</time>
      </trkpt>
      <trkpt lat="48.29073" lon="-4.28184">
        <ele>90.5</ele>
        <time>2013-04-16T12:39:35Z</time>
      </trkpt>
      <trkpt lat="48.29073" lon="-4.28164">
        <ele>90.02</ele>
        <time>2013-04-16T12:39:44Z</time>
      </trkpt>
      <trkpt lat="48.29075" lon="-4.28142">
        <ele>89.06</ele>
        <time>2013-04-16T12:39:56Z</time>
      </trkpt>
      <trkpt lat="48.29077" lon="-4.28124">
        <ele>89.06</ele>
        <time>2013-04-16T12:40:04Z</time>
      </trkpt>
      <trkpt lat="48.29075" lon="-4.28106">
        <ele>87.62</ele>
        <time>2013-04-16T12:40:14Z</time>
      </trkpt>
      <trkpt lat="48.29072" lon="-4.28092">
        <ele>87.14</ele>
        <time>2013-04-16T12:41:41Z</time>
      </trkpt>
      <trkpt lat="48.29076" lon="-4.2809">
        <ele>88.1</ele>
        <time>2013-04-16T12:42:30Z</time>
      </trkpt>
      <trkpt lat="48.29081" lon="-4.28074">
        <ele>85.69</ele>
        <time>2013-04-16T12:42:45Z</time>
      </trkpt>
      <trkpt lat="48.29085" lon="-4.28051">
        <ele>85.21</ele>
        <time>2013-04-16T12:42:58Z</time>
      </trkpt>
      <trkpt lat="48.29092" lon="-4.28036">
        <ele>83.77</ele>
        <time>2013-04-16T12:43:07Z</time>
      </trkpt>
      <trkpt lat="48.29102" lon="-4.28019">
        <ele>82.81</ele>
        <time>2013-04-16T12:43:22Z</time>
      </trkpt>
      <trkpt lat="48.29106" lon="-4.28003">
        <ele>82.33</ele>
        <time>2013-04-16T12:43:31Z</time>
      </trkpt>
      <trkpt lat="48.29112" lon="-4.2799">
        <ele>81.85</ele>
        <time>2013-04-16T12:43:41Z</time>
      </trkpt>
      <trkpt lat="48.29122" lon="-4.27977">
        <ele>79.93</ele>
        <time>2013-04-16T12:43:57Z</time>
      </trkpt>
      <trkpt lat="48.29141" lon="-4.27965">
        <ele>77.52</ele>
        <time>2013-04-16T12:44:11Z</time>
      </trkpt>
      <trkpt lat="48.29156" lon="-4.27953">
        <ele>75.6</ele>
        <time>2013-04-16T12:44:22Z</time>
      </trkpt>
      <trkpt lat="48.2917" lon="-4.27937">
        <ele>75.12</ele>
        <time>2013-04-16T12:44:32Z</time>
      </trkpt>
      <trkpt lat="48.29176" lon="-4.27919">
        <ele>72.72</ele>
        <time>2013-04-16T12:44:41Z</time>
      </trkpt>
      <trkpt lat="48.2918" lon="-4.27901">
        <ele>72.72</ele>
        <time>2013-04-16T12:44:50Z</time>
      </trkpt>
      <trkpt lat="48.29182" lon="-4.27883">
        <ele>71.27</ele>
        <time>2013-04-16T12:44:59Z</time>
      </trkpt>
      <trkpt lat="48.29181" lon="-4.27864">
        <ele>72.24</ele>
        <time>2013-04-16T12:45:09Z</time>
      </trkpt>
      <trkpt lat="48.29182" lon="-4.27846">
        <ele>69.35</ele>
        <time>2013-04-16T12:45:17Z</time>
      </trkpt>
      <trkpt lat="48.29186" lon="-4.2783">
        <ele>70.31</ele>
        <time>2013-04-16T12:45:26Z</time>
      </trkpt>
      <trkpt lat="48.29187" lon="-4.27813">
        <ele>70.31</ele>
        <time>2013-04-16T12:45:35Z</time>
      </trkpt>
      <trkpt lat="48.29186" lon="-4.27793">
        <ele>71.27</ele>
        <time>2013-04-16T12:45:44Z</time>
      </trkpt>
      <trkpt lat="48.29184" lon="-4.27777">
        <ele>72.24</ele>
        <time>2013-04-16T12:45:53Z</time>
      </trkpt>
      <trkpt lat="48.2918" lon="-4.27762">
        <ele>72.24</ele>
        <time>2013-04-16T12:46:03Z</time>
      </trkpt>
      <trkpt lat="48.2918" lon="-4.27747">
        <ele>71.76</ele>
        <time>2013-04-16T12:46:16Z</time>
      </trkpt>
      <trkpt lat="48.29177" lon="-4.27731">
        <ele>72.72</ele>
        <time>2013-04-16T12:46:27Z</time>
      </trkpt>
      <trkpt lat="48.29176" lon="-4.27711">
        <ele>73.2</ele>
        <time>2013-04-16T12:46:39Z</time>
      </trkpt>
      <trkpt lat="48.29175" lon="-4.27693">
        <ele>74.16</ele>
        <time>2013-04-16T12:46:48Z</time>
      </trkpt>
      <trkpt lat="48.29173" lon="-4.27677">
        <ele>74.16</ele>
        <time>2013-04-16T12:46:56Z</time>
      </trkpt>
      <trkpt lat="48.29174" lon="-4.27657">
        <ele>74.16</ele>
        <time>2013-04-16T12:47:08Z</time>
      </trkpt>
      <trkpt lat="48.29173" lon="-4.27635">
        <ele>73.68</ele>
        <time>2013-04-16T12:47:18Z</time>
      </trkpt>
      <trkpt lat="48.29169" lon="-4.27618">
        <ele>72.24</ele>
        <time>2013-04-16T12:47:27Z</time>
      </trkpt>
      <trkpt lat="48.29166" lon="-4.27602">
        <ele>71.76</ele>
        <time>2013-04-16T12:47:35Z</time>
      </trkpt>
      <trkpt lat="48.29163" lon="-4.27584">
        <ele>70.79</ele>
        <time>2013-04-16T12:47:45Z</time>
      </trkpt>
      <trkpt lat="48.29161" lon="-4.27569">
        <ele>70.79</ele>
        <time>2013-04-16T12:47:53Z</time>
      </trkpt>
      <trkpt lat="48.29158" lon="-4.27553">
        <ele>69.35</ele>
        <time>2013-04-16T12:48:02Z</time>
      </trkpt>
      <trkpt lat="48.29157" lon="-4.27533">
        <ele>69.35</ele>
        <time>2013-04-16T12:48:11Z</time>
      </trkpt>
      <trkpt lat="48.29154" lon="-4.27518">
        <ele>68.87</ele>
        <time>2013-04-16T12:48:20Z</time>
      </trkpt>
      <trkpt lat="48.29152" lon="-4.27502">
        <ele>67.91</ele>
        <time>2013-04-16T12:48:29Z</time>
      </trkpt>
      <trkpt lat="48.29149" lon="-4.27486">
        <ele>67.91</ele>
        <time>2013-04-16T12:48:38Z</time>
      </trkpt>
      <trkpt lat="48.29146" lon="-4.27474">
        <ele>66.95</ele>
        <time>2013-04-16T12:49:03Z</time>
      </trkpt>
      <trkpt lat="48.29144" lon="-4.27458">
        <ele>65.99</ele>
        <time>2013-04-16T12:49:20Z</time>
      </trkpt>
      <trkpt lat="48.29143" lon="-4.27441">
        <ele>65.99</ele>
        <time>2013-04-16T12:49:29Z</time>
      </trkpt>
      <trkpt lat="48.2914" lon="-4.27427">
        <ele>64.55</ele>
        <time>2013-04-16T12:49:37Z</time>
      </trkpt>
      <trkpt lat="48.29137" lon="-4.27411">
        <ele>65.03</ele>
        <time>2013-04-16T12:49:46Z</time>
      </trkpt>
      <trkpt lat="48.29134" lon="-4.27398">
        <ele>64.55</ele>
        <time>2013-04-16T12:49:54Z</time>
      </trkpt>
      <trkpt lat="48.29132" lon="-4.27382">
        <ele>64.07</ele>
        <time>2013-04-16T12:50:03Z</time>
      </trkpt>
      <trkpt lat="48.2913" lon="-4.27368">
        <ele>64.07</ele>
        <time>2013-04-16T12:50:11Z</time>
      </trkpt>
      <trkpt lat="48.29128" lon="-4.27351">
        <ele>63.1</ele>
        <time>2013-04-16T12:50:19Z</time>
      </trkpt>
      <trkpt lat="48.29124" lon="-4.27337">
        <ele>63.1</ele>
        <time>2013-04-16T12:50:26Z</time>
      </trkpt>
      <trkpt lat="48.29121" lon="-4.27322">
        <ele>61.66</ele>
        <time>2013-04-16T12:50:34Z</time>
      </trkpt>
      <trkpt lat="48.29118" lon="-4.27306">
        <ele>60.7</ele>
        <time>2013-04-16T12:50:42Z</time>
      </trkpt>
      <trkpt lat="48.29115" lon="-4.27292">
        <ele>59.74</ele>
        <time>2013-04-16T12:50:50Z</time>
      </trkpt>
      <trkpt lat="48.29114" lon="-4.27274">
        <ele>59.26</ele>
        <time>2013-04-16T12:50:59Z</time>
      </trkpt>
      <trkpt lat="48.29111" lon="-4.27258">
        <ele>56.86</ele>
        <time>2013-04-16T12:51:08Z</time>
      </trkpt>
      <trkpt lat="48.29111" lon="-4.27242">
        <ele>57.82</ele>
        <time>2013-04-16T12:51:17Z</time>
      </trkpt>
      <trkpt lat="48.29111" lon="-4.27226">
        <ele>56.86</ele>
        <time>2013-04-16T12:51:24Z</time>
      </trkpt>
      <trkpt lat="48.2911" lon="-4.27209">
        <ele>55.41</ele>
        <time>2013-04-16T12:51:33Z</time>
      </trkpt>
      <trkpt lat="48.2911" lon="-4.27195">
        <ele>54.93</ele>
        <time>2013-04-16T12:51:39Z</time>
      </trkpt>
      <trkpt lat="48.29108" lon="-4.27181">
        <ele>53.49</ele>
        <time>2013-04-16T12:51:48Z</time>
      </trkpt>
      <trkpt lat="48.29108" lon="-4.27162">
        <ele>52.05</ele>
        <time>2013-04-16T12:51:56Z</time>
      </trkpt>
      <trkpt lat="48.29107" lon="-4.27147">
        <ele>48.68</ele>
        <time>2013-04-16T12:52:05Z</time>
      </trkpt>
      <trkpt lat="48.29108" lon="-4.27127">
        <ele>48.2</ele>
        <time>2013-04-16T12:52:17Z</time>
      </trkpt>
      <trkpt lat="48.2911" lon="-4.27113">
        <ele>47.24</ele>
        <time>2013-04-16T12:52:24Z</time>
      </trkpt>
      <trkpt lat="48.29114" lon="-4.271">
        <ele>45.8</ele>
        <time>2013-04-16T12:52:33Z</time>
      </trkpt>
      <trkpt lat="48.29117" lon="-4.27086">
        <ele>44.84</ele>
        <time>2013-04-16T12:52:41Z</time>
      </trkpt>
      <trkpt lat="48.29121" lon="-4.2707">
        <ele>43.4</ele>
        <time>2013-04-16T12:52:50Z</time>
      </trkpt>
      <trkpt lat="48.29125" lon="-4.27056">
        <ele>41.47</ele>
        <time>2013-04-16T12:52:58Z</time>
      </trkpt>
      <trkpt lat="48.29127" lon="-4.2704">
        <ele>40.03</ele>
        <time>2013-04-16T12:53:08Z</time>
      </trkpt>
      <trkpt lat="48.29129" lon="-4.27022">
        <ele>38.11</ele>
        <time>2013-04-16T12:53:18Z</time>
      </trkpt>
      <trkpt lat="48.29129" lon="-4.27004">
        <ele>35.71</ele>
        <time>2013-04-16T12:53:26Z</time>
      </trkpt>
      <trkpt lat="48.29129" lon="-4.26989">
        <ele>34.26</ele>
        <time>2013-04-16T12:53:35Z</time>
      </trkpt>
      <trkpt lat="48.29129" lon="-4.26971">
        <ele>31.38</ele>
        <time>2013-04-16T12:53:45Z</time>
      </trkpt>
      <trkpt lat="48.2913" lon="-4.26955">
        <ele>29.94</ele>
        <time>2013-04-16T12:53:55Z</time>
      </trkpt>
      <trkpt lat="48.29131" lon="-4.26938">
        <ele>29.46</ele>
        <time>2013-04-16T12:54:04Z</time>
      </trkpt>
      <trkpt lat="48.29134" lon="-4.26922">
        <ele>27.05</ele>
        <time>2013-04-16T12:54:13Z</time>
      </trkpt>
      <trkpt lat="48.29138" lon="-4.26905">
        <ele>24.65</ele>
        <time>2013-04-16T12:54:23Z</time>
      </trkpt>
      <trkpt lat="48.29141" lon="-4.2689">
        <ele>23.69</ele>
        <time>2013-04-16T12:54:32Z</time>
      </trkpt>
      <trkpt lat="48.29145" lon="-4.26877">
        <ele>22.73</ele>
        <time>2013-04-16T12:55:12Z</time>
      </trkpt>
      <trkpt lat="48.29146" lon="-4.26863">
        <ele>21.77</ele>
        <time>2013-04-16T12:55:20Z</time>
      </trkpt>
      <trkpt lat="48.29147" lon="-4.26848">
        <ele>20.32</ele>
        <time>2013-04-16T12:55:29Z</time>
      </trkpt>
      <trkpt lat="48.2915" lon="-4.26833">
        <ele>18.88</ele>
        <time>2013-04-16T12:55:37Z</time>
      </trkpt>
      <trkpt lat="48.29153" lon="-4.26818">
        <ele>17.92</ele>
        <time>2013-04-16T12:55:46Z</time>
      </trkpt>
      <trkpt lat="48.29154" lon="-4.26804">
        <ele>16.48</ele>
        <time>2013-04-16T12:55:54Z</time>
      </trkpt>
      <trkpt lat="48.29155" lon="-4.26788">
        <ele>15.04</ele>
        <time>2013-04-16T12:56:04Z</time>
      </trkpt>
      <trkpt lat="48.29157" lon="-4.26772">
        <ele>14.08</ele>
        <time>2013-04-16T12:56:14Z</time>
      </trkpt>
      <trkpt lat="48.29162" lon="-4.2676">
        <ele>13.12</ele>
        <time>2013-04-16T12:56:23Z</time>
      </trkpt>
      <trkpt lat="48.29172" lon="-4.26753">
        <ele>13.6</ele>
        <time>2013-04-16T12:56:32Z</time>
      </trkpt>
      <trkpt lat="48.29182" lon="-4.26756">
        <ele>14.56</ele>
        <time>2013-04-16T12:56:41Z</time>
      </trkpt>
      <trkpt lat="48.29191" lon="-4.26759">
        <ele>14.08</ele>
        <time>2013-04-16T12:56:50Z</time>
      </trkpt>
      <trkpt lat="48.29201" lon="-4.2676">
        <ele>13.6</ele>
        <time>2013-04-16T12:56:59Z</time>
      </trkpt>
      <trkpt lat="48.29212" lon="-4.26762">
        <ele>13.12</ele>
        <time>2013-04-16T12:57:07Z</time>
      </trkpt>
      <trkpt lat="48.29224" lon="-4.26762">
        <ele>12.15</ele>
        <time>2013-04-16T12:57:17Z</time>
      </trkpt>
      <trkpt lat="48.29235" lon="-4.2676">
        <ele>11.19</ele>
        <time>2013-04-16T12:57:25Z</time>
      </trkpt>
      <trkpt lat="48.29246" lon="-4.2676">
        <ele>11.19</ele>
        <time>2013-04-16T12:57:34Z</time>
      </trkpt>
      <trkpt lat="48.29256" lon="-4.2676">
        <ele>10.23</ele>
        <time>2013-04-16T12:57:42Z</time>
      </trkpt>
      <trkpt lat="48.29267" lon="-4.26762">
        <ele>9.75</ele>
        <time>2013-04-16T12:57:51Z</time>
      </trkpt>
      <trkpt lat="48.29278" lon="-4.26761">
        <ele>9.27</ele>
        <time>2013-04-16T12:57:59Z</time>
      </trkpt>
      <trkpt lat="48.29288" lon="-4.26762">
        <ele>8.31</ele>
        <time>2013-04-16T12:58:07Z</time>
      </trkpt>
      <trkpt lat="48.29299" lon="-4.26762">
        <ele>8.31</ele>
        <time>2013-04-16T12:58:15Z</time>
      </trkpt>
    </trkseg>
  </trk>
</gpx>